Wetterdaten: Samstag, 26.08.2023
Datum Zeit Temp. Aussen Temp. o. S. Temp +5cm Feuchte Auss Luftdruck Regen Sonnenschein Regendauer Solar Windben Empfang
26.08.2023 00:00 19,2 C 17,8 C 15,0 C 95 % 1009,5 hPa 0,0 l/m 0 min 0 min 0 W/m 3,2 km/h (1 Bft) 97,87 %
26.08.2023 00:02 19,2 C 17,8 C 15,0 C 95 % 1009,5 hPa 0,0 l/m 0 min 0 min 0 W/m 6,4 km/h (2 Bft) 97,83 %
26.08.2023 00:04 19,1 C 17,8 C 15,0 C 95 % 1009,5 hPa 0,0 l/m 0 min 0 min 0 W/m 0,0 km/h (0 Bft) 94,74 %
26.08.2023 00:08 19,1 C 17,8 C 15,0 C 95 % 1009,5 hPa 0,0 l/m 0 min 0 min 0 W/m 3,2 km/h (1 Bft) 95,92 %
26.08.2023 00:10 19,1 C 17,8 C 15,0 C 95 % 1009,5 hPa 0,0 l/m 0 min 0 min 0 W/m 6,4 km/h (2 Bft) 95,74 %
26.08.2023 00:12 19,1 C 17,8 C 15,0 C 95 % 1009,5 hPa 0,0 l/m 0 min 0 min 0 W/m 6,4 km/h (2 Bft) 97,87 %
26.08.2023 00:14 19,1 C 18,3 C 15,0 C 95 % 1009,5 hPa 0,0 l/m 0 min 0 min 0 W/m 6,4 km/h (2 Bft) 97,87 %
26.08.2023 00:16 19,1 C 18,3 C 15,0 C 95 % 1009,5 hPa 0,0 l/m 0 min 0 min 0 W/m 3,2 km/h (1 Bft) 97,87 %
26.08.2023 00:18 19,0 C 18,3 C 15,0 C 95 % 1009,5 hPa 0,0 l/m 0 min 0 min 0 W/m 12,9 km/h (3 Bft) 97,83 %
26.08.2023 00:20 19,0 C 18,3 C 15,0 C 96 % 1009,5 hPa 0,0 l/m 0 min 0 min 0 W/m 12,9 km/h (3 Bft) 97,87 %
26.08.2023 00:22 19,0 C 18,3 C 15,0 C 96 % 1009,5 hPa 0,0 l/m 0 min 0 min 0 W/m 12,9 km/h (3 Bft) 95,74 %
26.08.2023 00:24 18,9 C 18,3 C 15,0 C 96 % 1009,6 hPa 0,0 l/m 0 min 0 min 0 W/m 12,9 km/h (3 Bft) 97,87 %
26.08.2023 00:26 19,0 C 18,3 C 15,0 C 96 % 1009,7 hPa 0,0 l/m 0 min 0 min 0 W/m 6,4 km/h (2 Bft) 97,87 %
26.08.2023 00:28 18,9 C 18,3 C 15,0 C 96 % 1009,7 hPa 0,0 l/m 0 min 0 min 0 W/m 12,9 km/h (3 Bft) 95,74 %
26.08.2023 00:30 18,9 C 18,3 C 15,0 C 96 % 1009,7 hPa 0,0 l/m 0 min 0 min 0 W/m 12,9 km/h (3 Bft) 97,83 %
26.08.2023 00:32 18,9 C 18,3 C 15,0 C 96 % 1009,7 hPa 0,0 l/m 0 min 0 min 0 W/m 9,7 km/h (2 Bft) 97,87 %
26.08.2023 00:34 18,9 C 18,3 C 15,0 C 96 % 1009,8 hPa 0,0 l/m 0 min 0 min 0 W/m 6,4 km/h (2 Bft) 97,87 %
26.08.2023 00:36 18,9 C 18,3 C 15,0 C 96 % 1009,8 hPa 0,0 l/m 0 min 0 min 0 W/m 6,4 km/h (2 Bft) 97,87 %
26.08.2023 00:38 18,9 C 18,3 C 15,0 C 96 % 1009,7 hPa 0,0 l/m 0 min 0 min 0 W/m 6,4 km/h (2 Bft) 100,00 %
26.08.2023 00:40 18,9 C 18,3 C 15,0 C 96 % 1009,7 hPa 0,0 l/m 0 min 0 min 0 W/m 6,4 km/h (2 Bft) 100,00 %
26.08.2023 00:42 18,9 C 18,3 C 15,0 C 96 % 1009,7 hPa 0,0 l/m 0 min 0 min 0 W/m 12,9 km/h (3 Bft) 100,00 %
26.08.2023 00:44 18,9 C 18,3 C 15,0 C 96 % 1009,7 hPa 0,0 l/m 0 min 0 min 0 W/m 3,2 km/h (1 Bft) 97,87 %
26.08.2023 00:46 18,9 C 18,3 C 15,0 C 95 % 1009,8 hPa 0,0 l/m 0 min 0 min 0 W/m 3,2 km/h (1 Bft) 100,00 %
26.08.2023 00:48 18,9 C 18,3 C 15,0 C 95 % 1009,8 hPa 0,0 l/m 0 min 0 min 0 W/m 6,4 km/h (2 Bft) 100,00 %
26.08.2023 00:50 18,9 C 18,3 C 15,0 C 95 % 1009,8 hPa 0,0 l/m 0 min 0 min 0 W/m 6,4 km/h (2 Bft) 100,00 %
26.08.2023 00:52 18,9 C 18,3 C 15,0 C 95 % 1009,8 hPa 0,0 l/m 0 min 0 min 0 W/m 6,4 km/h (2 Bft) 97,87 %
26.08.2023 00:54 18,9 C 18,3 C 15,0 C 95 % 1009,9 hPa 0,0 l/m 0 min 0 min 0 W/m 12,9 km/h (3 Bft) 97,87 %
26.08.2023 00:56 18,8 C 18,3 C 15,0 C 95 % 1009,8 hPa 0,0 l/m 0 min 0 min 0 W/m 12,9 km/h (3 Bft) 100,00 %
26.08.2023 00:58 18,8 C 18,3 C 15,0 C 95 % 1009,8 hPa 0,0 l/m 0 min 0 min 0 W/m 9,7 km/h (2 Bft) 97,87 %
26.08.2023 01:00 18,7 C 18,3 C 15,0 C 95 % 1009,8 hPa 0,0 l/m 0 min 0 min 0 W/m 12,9 km/h (3 Bft) 100,00 %
26.08.2023 01:02 18,7 C 17,8 C 15,0 C 94 % 1009,8 hPa 0,0 l/m 0 min 0 min 0 W/m 9,7 km/h (2 Bft) 97,87 %
26.08.2023 01:04 18,6 C 17,8 C 15,0 C 94 % 1009,6 hPa 0,0 l/m 0 min 0 min 0 W/m 6,4 km/h (2 Bft) 100,00 %
26.08.2023 01:06 18,6 C 17,8 C 15,0 C 94 % 1009,6 hPa 0,0 l/m 0 min 0 min 0 W/m 6,4 km/h (2 Bft) 95,92 %
26.08.2023 01:08 18,6 C 17,8 C 15,0 C 94 % 1009,6 hPa 0,0 l/m 0 min 0 min 0 W/m 6,4 km/h (2 Bft) 95,65 %
26.08.2023 01:10 18,5 C 17,8 C 15,0 C 94 % 1009,5 hPa 0,0 l/m 0 min 0 min 0 W/m 6,4 km/h (2 Bft) 95,74 %
26.08.2023 01:12 18,5 C 17,8 C 15,0 C 93 % 1009,7 hPa 0,0 l/m 0 min 0 min 0 W/m 6,4 km/h (2 Bft) 93,62 %
26.08.2023 01:14 18,5 C 17,8 C 15,0 C 93 % 1009,6 hPa 0,0 l/m 0 min 0 min 0 W/m 3,2 km/h (1 Bft) 95,74 %
26.08.2023 01:16 18,4 C 17,8 C 14,4 C 93 % 1009,6 hPa 0,0 l/m 0 min 0 min 0 W/m 3,2 km/h (1 Bft) 93,62 %
26.08.2023 01:18 18,4 C 17,8 C 14,4 C 93 % 1009,7 hPa 0,0 l/m 0 min 0 min 0 W/m 3,2 km/h (1 Bft) 93,62 %
26.08.2023 01:20 18,4 C 17,8 C 14,4 C 93 % 1009,7 hPa 0,0 l/m 0 min 0 min 0 W/m 3,2 km/h (1 Bft) 95,74 %
26.08.2023 01:22 18,4 C 17,8 C 14,4 C 93 % 1009,7 hPa 0,0 l/m 0 min 0 min 0 W/m 3,2 km/h (1 Bft) 97,83 %
26.08.2023 01:24 18,4 C 17,8 C 14,4 C 93 % 1009,7 hPa 0,0 l/m 0 min 0 min 0 W/m 3,2 km/h (1 Bft) 95,74 %
26.08.2023 01:26 18,4 C 17,8 C 14,4 C 93 % 1009,7 hPa 0,0 l/m 0 min 0 min 0 W/m 3,2 km/h (1 Bft) 95,74 %
26.08.2023 01:28 18,4 C 17,8 C 14,4 C 93 % 1009,8 hPa 0,0 l/m 0 min 0 min 0 W/m 0,0 km/h (0 Bft) 93,62 %
26.08.2023 01:30 18,4 C 17,8 C 14,4 C 93 % 1009,8 hPa 0,0 l/m 0 min 0 min 0 W/m 3,2 km/h (1 Bft) 95,74 %
26.08.2023 01:32 18,4 C 17,8 C 14,4 C 93 % 1009,8 hPa 0,0 l/m 0 min 0 min 0 W/m 6,4 km/h (2 Bft) 95,74 %
26.08.2023 01:34 18,4 C 17,8 C 14,4 C 93 % 1009,7 hPa 0,0 l/m 0 min 0 min 0 W/m 6,4 km/h (2 Bft) 91,30 %
26.08.2023 01:36 18,4 C 17,8 C 14,4 C 93 % 1009,7 hPa 0,0 l/m 0 min 0 min 0 W/m 3,2 km/h (1 Bft) 95,74 %
26.08.2023 01:38 18,4 C 17,8 C 14,4 C 93 % 1009,7 hPa 0,0 l/m 0 min 0 min 0 W/m 3,2 km/h (1 Bft) 95,74 %
26.08.2023 01:40 18,4 C 17,8 C 14,4 C 93 % 1009,8 hPa 0,0 l/m 0 min 0 min 0 W/m 6,4 km/h (2 Bft) 95,74 %
26.08.2023 01:42 18,3 C 17,8 C 14,4 C 93 % 1009,8 hPa 0,0 l/m 0 min 0 min 0 W/m 3,2 km/h (1 Bft) 93,62 %
26.08.2023 01:44 18,3 C 17,8 C 14,4 C 93 % 1009,8 hPa 0,0 l/m 0 min 0 min 0 W/m 3,2 km/h (1 Bft) 95,74 %
26.08.2023 01:46 18,3 C 17,8 C 14,4 C 93 % 1009,8 hPa 0,0 l/m 0 min 0 min 0 W/m 0,0 km/h (0 Bft) 95,74 %
26.08.2023 01:48 18,3 C 17,8 C 14,4 C 93 % 1009,8 hPa 0,0 l/m 0 min 0 min 0 W/m 3,2 km/h (1 Bft) 95,65 %
26.08.2023 01:50 18,3 C 17,8 C 14,4 C 93 % 1009,8 hPa 0,0 l/m 0 min 0 min 0 W/m 3,2 km/h (1 Bft) 95,74 %
26.08.2023 01:52 18,3 C 17,8 C 14,4 C 93 % 1009,8 hPa 0,0 l/m 0 min 0 min 0 W/m 6,4 km/h (2 Bft) 93,62 %
26.08.2023 01:54 18,3 C 17,8 C 14,4 C 93 % 1009,9 hPa 0,0 l/m 0 min 0 min 0 W/m 3,2 km/h (1 Bft) 97,87 %
26.08.2023 01:56 18,3 C 17,8 C 14,4 C 93 % 1009,8 hPa 0,0 l/m 0 min 0 min 0 W/m 3,2 km/h (1 Bft) 97,87 %
26.08.2023 01:58 18,3 C 17,8 C 14,4 C 93 % 1009,9 hPa 0,0 l/m 0 min 0 min 0 W/m 3,2 km/h (1 Bft) 97,87 %
26.08.2023 02:00 18,3 C 17,8 C 14,4 C 93 % 1009,9 hPa 0,0 l/m 0 min 0 min 0 W/m 3,2 km/h (1 Bft) 95,65 %
26.08.2023 02:02 18,3 C 17,8 C 14,4 C 93 % 1009,9 hPa 0,0 l/m 0 min 0 min 0 W/m 0,0 km/h (0 Bft) 97,87 %
26.08.2023 02:04 18,3 C 17,8 C 14,4 C 93 % 1009,9 hPa 0,0 l/m 0 min 0 min 0 W/m 0,0 km/h (0 Bft) 95,74 %
26.08.2023 02:06 18,3 C 17,8 C 14,4 C 93 % 1009,9 hPa 0,0 l/m 0 min 0 min 0 W/m 3,2 km/h (1 Bft) 97,87 %
26.08.2023 02:08 18,3 C 17,2 C 14,4 C 93 % 1009,9 hPa 0,0 l/m 0 min 0 min 0 W/m 0,0 km/h (0 Bft) 97,87 %
26.08.2023 02:10 18,3 C 17,8 C 14,4 C 93 % 1009,9 hPa 0,0 l/m 0 min 0 min 0 W/m 0,0 km/h (0 Bft) 97,87 %
26.08.2023 02:18 18,3 C 17,2 C 14,4 C 93 % 1010,0 hPa 0,0 l/m 0 min 0 min 0 W/m 3,2 km/h (1 Bft) 96,81 %
26.08.2023 02:20 18,3 C 17,2 C 14,4 C 93 % 1010,0 hPa 0,0 l/m 0 min 0 min 0 W/m 6,4 km/h (2 Bft) 97,30 %
26.08.2023 02:22 18,3 C 17,2 C 14,4 C 93 % 1010,1 hPa 0,0 l/m 0 min 0 min 0 W/m 12,9 km/h (3 Bft) 97,83 %
26.08.2023 02:24 18,2 C 17,2 C 14,4 C 93 % 1010,0 hPa 0,0 l/m 0 min 0 min 0 W/m 3,2 km/h (1 Bft) 97,87 %
26.08.2023 02:26 18,2 C 17,2 C 14,4 C 93 % 1010,0 hPa 0,0 l/m 0 min 0 min 0 W/m 6,4 km/h (2 Bft) 97,87 %
26.08.2023 02:28 18,2 C 17,2 C 14,4 C 93 % 1010,1 hPa 0,0 l/m 0 min 0 min 0 W/m 9,7 km/h (2 Bft) 97,87 %
26.08.2023 02:30 18,1 C 17,2 C 14,4 C 93 % 1010,0 hPa 0,0 l/m 0 min 0 min 0 W/m 12,9 km/h (3 Bft) 97,87 %
26.08.2023 02:32 18,1 C 17,2 C 14,4 C 93 % 1010,0 hPa 0,0 l/m 0 min 0 min 0 W/m 3,2 km/h (1 Bft) 95,74 %
26.08.2023 02:34 18,1 C 17,2 C 14,4 C 93 % 1010,0 hPa 0,0 l/m 0 min 0 min 0 W/m 6,4 km/h (2 Bft) 100,00 %
26.08.2023 02:36 18,1 C 17,2 C 14,4 C 93 % 1010,0 hPa 0,0 l/m 0 min 0 min 0 W/m 3,2 km/h (1 Bft) 100,00 %
26.08.2023 02:38 18,1 C 17,2 C 14,4 C 93 % 1010,0 hPa 0,0 l/m 0 min 0 min 0 W/m 6,4 km/h (2 Bft) 100,00 %
26.08.2023 02:40 18,1 C 17,2 C 14,4 C 93 % 1009,9 hPa 0,0 l/m 0 min 0 min 0 W/m 3,2 km/h (1 Bft) 100,00 %
26.08.2023 02:42 18,1 C 17,2 C 14,4 C 93 % 1009,9 hPa 0,0 l/m 0 min 0 min 0 W/m 6,4 km/h (2 Bft) 97,87 %
26.08.2023 02:44 18,1 C 17,2 C 14,4 C 93 % 1009,9 hPa 0,0 l/m 0 min 0 min 0 W/m 6,4 km/h (2 Bft) 100,00 %
26.08.2023 02:46 18,1 C 17,2 C 14,4 C 93 % 1009,9 hPa 0,0 l/m 0 min 0 min 0 W/m 3,2 km/h (1 Bft) 100,00 %
26.08.2023 02:48 18,1 C 17,2 C 14,4 C 93 % 1010,0 hPa 0,0 l/m 0 min 0 min 0 W/m 3,2 km/h (1 Bft) 100,00 %
26.08.2023 02:50 18,1 C 17,2 C 14,4 C 93 % 1009,9 hPa 0,0 l/m 0 min 0 min 0 W/m 3,2 km/h (1 Bft) 97,87 %
26.08.2023 02:52 18,1 C 17,2 C 14,4 C 94 % 1009,9 hPa 0,0 l/m 0 min 2 min 0 W/m 3,2 km/h (1 Bft) 100,00 %
26.08.2023 02:55 18,1 C 17,2 C 13,9 C 94 % 1009,9 hPa 0,0 l/m 0 min 0 min 0 W/m 6,4 km/h (2 Bft) 100,00 %
26.08.2023 03:01 18,1 C 17,2 C 13,9 C 94 % 1009,9 hPa 0,0 l/m 0 min 0 min 0 W/m 6,4 km/h (2 Bft) 98,28 %
26.08.2023 03:04 18,1 C 17,2 C 13,9 C 94 % 1009,9 hPa 0,0 l/m 0 min 0 min 0 W/m 9,7 km/h (2 Bft) 100,00 %
26.08.2023 03:06 18,1 C 17,2 C 13,9 C 94 % 1010,0 hPa 0,0 l/m 0 min 0 min 0 W/m 12,9 km/h (3 Bft) 97,92 %
26.08.2023 03:08 18,0 C 17,2 C 13,9 C 94 % 1009,9 hPa 0,0 l/m 0 min 0 min 0 W/m 12,9 km/h (3 Bft) 100,00 %
26.08.2023 03:10 17,9 C 17,2 C 13,9 C 94 % 1009,9 hPa 0,0 l/m 0 min 0 min 0 W/m 9,7 km/h (2 Bft) 100,00 %
26.08.2023 03:12 17,9 C 17,2 C 13,9 C 94 % 1009,9 hPa 0,0 l/m 0 min 0 min 0 W/m 12,9 km/h (3 Bft) 97,83 %
26.08.2023 03:14 17,9 C 17,2 C 13,9 C 94 % 1009,9 hPa 0,0 l/m 0 min 0 min 0 W/m 16,1 km/h (3 Bft) 100,00 %
26.08.2023 03:16 17,8 C 17,2 C 13,9 C 94 % 1010,0 hPa 0,0 l/m 0 min 0 min 0 W/m 16,1 km/h (3 Bft) 100,00 %
26.08.2023 03:18 17,8 C 16,7 C 13,9 C 93 % 1010,1 hPa 0,0 l/m 0 min 0 min 0 W/m 12,9 km/h (3 Bft) 100,00 %
26.08.2023 03:20 17,7 C 16,7 C 13,9 C 93 % 1010,0 hPa 0,0 l/m 0 min 0 min 0 W/m 19,3 km/h (3 Bft) 100,00 %
26.08.2023 03:22 17,6 C 16,7 C 13,9 C 93 % 1010,1 hPa 0,0 l/m 0 min 0 min 0 W/m 16,1 km/h (3 Bft) 100,00 %
26.08.2023 03:24 17,4 C 16,7 C 13,9 C 92 % 1010,1 hPa 0,0 l/m 0 min 0 min 0 W/m 16,1 km/h (3 Bft) 100,00 %
26.08.2023 03:26 17,2 C 16,7 C 13,3 C 91 % 1010,2 hPa 0,0 l/m 0 min 0 min 0 W/m 22,5 km/h (4 Bft) 100,00 %
26.08.2023 03:28 17,1 C 16,1 C 13,3 C 90 % 1010,2 hPa 0,0 l/m 0 min 0 min 0 W/m 19,3 km/h (3 Bft) 100,00 %
26.08.2023 03:30 17,0 C 16,1 C 13,3 C 90 % 1010,2 hPa 0,0 l/m 0 min 0 min 0 W/m 22,5 km/h (4 Bft) 97,87 %
26.08.2023 03:32 16,8 C 16,1 C 13,3 C 88 % 1010,2 hPa 0,0 l/m 0 min 0 min 0 W/m 19,3 km/h (3 Bft) 100,00 %
26.08.2023 03:34 16,8 C 16,1 C 13,3 C 88 % 1010,3 hPa 0,0 l/m 0 min 0 min 0 W/m 12,9 km/h (3 Bft) 100,00 %
26.08.2023 03:36 16,8 C 16,1 C 12,8 C 88 % 1010,4 hPa 0,0 l/m 0 min 0 min 0 W/m 12,9 km/h (3 Bft) 100,00 %
26.08.2023 03:38 16,7 C 16,1 C 12,8 C 87 % 1010,4 hPa 0,0 l/m 0 min 0 min 0 W/m 12,9 km/h (3 Bft) 100,00 %
26.08.2023 03:40 16,7 C 16,1 C 12,8 C 87 % 1010,4 hPa 0,0 l/m 0 min 0 min 0 W/m 16,1 km/h (3 Bft) 100,00 %
26.08.2023 03:42 16,6 C 15,6 C 12,8 C 87 % 1010,5 hPa 0,0 l/m 0 min 0 min 0 W/m 12,9 km/h (3 Bft) 100,00 %
26.08.2023 03:44 16,6 C 15,6 C 12,8 C 87 % 1010,5 hPa 0,0 l/m 0 min 0 min 0 W/m 16,1 km/h (3 Bft) 97,87 %
26.08.2023 03:46 16,6 C 15,6 C 12,8 C 87 % 1010,5 hPa 0,0 l/m 0 min 0 min 0 W/m 9,7 km/h (2 Bft) 100,00 %
26.08.2023 03:48 16,5 C 15,6 C 12,8 C 87 % 1010,6 hPa 0,0 l/m 0 min 0 min 0 W/m 12,9 km/h (3 Bft) 100,00 %
26.08.2023 03:50 16,4 C 15,6 C 12,8 C 87 % 1010,6 hPa 0,0 l/m 0 min 0 min 0 W/m 16,1 km/h (3 Bft) 100,00 %
26.08.2023 03:52 16,4 C 15,6 C 12,8 C 87 % 1010,7 hPa 0,0 l/m 0 min 0 min 0 W/m 6,4 km/h (2 Bft) 97,83 %
26.08.2023 03:54 16,3 C 15,6 C 12,8 C 87 % 1010,7 hPa 0,0 l/m 0 min 0 min 0 W/m 6,4 km/h (2 Bft) 97,87 %
26.08.2023 03:56 16,3 C 15,6 C 12,8 C 87 % 1010,6 hPa 0,0 l/m 0 min 0 min 0 W/m 3,2 km/h (1 Bft) 97,87 %
26.08.2023 03:58 16,2 C 15,0 C 12,8 C 87 % 1010,7 hPa 0,0 l/m 0 min 0 min 0 W/m 6,4 km/h (2 Bft) 97,87 %
26.08.2023 04:00 16,1 C 15,0 C 12,2 C 87 % 1010,7 hPa 0,0 l/m 0 min 0 min 0 W/m 6,4 km/h (2 Bft) 95,74 %
26.08.2023 04:02 16,1 C 15,0 C 12,2 C 87 % 1010,7 hPa 0,0 l/m 0 min 0 min 0 W/m 12,9 km/h (3 Bft) 93,62 %
26.08.2023 04:04 16,0 C 15,0 C 12,2 C 87 % 1010,7 hPa 0,0 l/m 0 min 0 min 0 W/m 12,9 km/h (3 Bft) 93,62 %
26.08.2023 04:06 15,9 C 15,0 C 12,2 C 87 % 1010,7 hPa 0,0 l/m 0 min 0 min 0 W/m 16,1 km/h (3 Bft) 91,53 %
26.08.2023 04:08 15,8 C 15,0 C 12,2 C 87 % 1010,7 hPa 0,0 l/m 0 min 0 min 0 W/m 12,9 km/h (3 Bft) 94,29 %
26.08.2023 04:10 15,8 C 15,0 C 12,2 C 86 % 1010,7 hPa 0,0 l/m 0 min 0 min 0 W/m 12,9 km/h (3 Bft) 93,62 %
26.08.2023 04:12 15,7 C 15,0 C 12,2 C 86 % 1010,8 hPa 0,0 l/m 0 min 0 min 0 W/m 16,1 km/h (3 Bft) 91,49 %
26.08.2023 04:14 15,7 C 15,0 C 12,2 C 86 % 1010,8 hPa 0,0 l/m 0 min 0 min 0 W/m 6,4 km/h (2 Bft) 93,62 %
26.08.2023 04:16 15,7 C 15,0 C 12,2 C 86 % 1010,7 hPa 0,0 l/m 0 min 0 min 0 W/m 12,9 km/h (3 Bft) 93,62 %
26.08.2023 04:18 15,7 C 15,0 C 12,2 C 86 % 1010,7 hPa 0,0 l/m 0 min 0 min 0 W/m 6,4 km/h (2 Bft) 93,48 %
26.08.2023 04:20 15,6 C 15,0 C 11,7 C 86 % 1010,8 hPa 0,0 l/m 0 min 0 min 0 W/m 9,7 km/h (2 Bft) 95,74 %
26.08.2023 04:22 15,6 C 15,0 C 11,7 C 86 % 1010,8 hPa 0,0 l/m 0 min 0 min 0 W/m 12,9 km/h (3 Bft) 95,74 %
26.08.2023 04:24 15,6 C 14,4 C 11,7 C 86 % 1010,7 hPa 0,0 l/m 0 min 0 min 0 W/m 6,4 km/h (2 Bft) 96,00 %
26.08.2023 04:26 15,5 C 14,4 C 11,7 C 86 % 1010,7 hPa 0,0 l/m 0 min 0 min 0 W/m 6,4 km/h (2 Bft) 97,87 %
26.08.2023 04:28 15,5 C 14,4 C 11,7 C 87 % 1010,7 hPa 0,0 l/m 0 min 0 min 0 W/m 3,2 km/h (1 Bft) 93,62 %
26.08.2023 04:30 15,4 C 14,4 C 11,7 C 87 % 1010,7 hPa 0,0 l/m 0 min 0 min 0 W/m 9,7 km/h (2 Bft) 93,62 %
26.08.2023 04:32 15,4 C 14,4 C 11,7 C 87 % 1010,7 hPa 0,0 l/m 0 min 0 min 0 W/m 9,7 km/h (2 Bft) 95,65 %
26.08.2023 04:34 15,3 C 14,4 C 11,7 C 87 % 1010,7 hPa 0,0 l/m 0 min 0 min 0 W/m 6,4 km/h (2 Bft) 95,74 %
26.08.2023 04:36 15,3 C 14,4 C 11,7 C 87 % 1010,8 hPa 0,0 l/m 0 min 0 min 0 W/m 9,7 km/h (2 Bft) 95,74 %
26.08.2023 04:38 15,2 C 14,4 C 11,7 C 87 % 1010,8 hPa 0,0 l/m 0 min 0 min 0 W/m 12,9 km/h (3 Bft) 93,62 %
26.08.2023 04:40 15,2 C 14,4 C 11,7 C 87 % 1010,8 hPa 0,0 l/m 0 min 0 min 0 W/m 9,7 km/h (2 Bft) 95,74 %
26.08.2023 04:42 15,2 C 14,4 C 11,7 C 87 % 1010,9 hPa 0,0 l/m 0 min 0 min 0 W/m 6,4 km/h (2 Bft) 95,74 %
26.08.2023 04:44 15,1 C 14,4 C 11,7 C 87 % 1010,8 hPa 0,0 l/m 0 min 0 min 0 W/m 6,4 km/h (2 Bft) 93,62 %
26.08.2023 04:46 15,1 C 14,4 C 11,1 C 87 % 1010,8 hPa 0,0 l/m 0 min 0 min 0 W/m 12,9 km/h (3 Bft) 97,83 %
26.08.2023 04:48 15,1 C 14,4 C 11,1 C 87 % 1010,8 hPa 0,0 l/m 0 min 0 min 0 W/m 3,2 km/h (1 Bft) 97,87 %
26.08.2023 04:50 15,0 C 13,9 C 11,1 C 87 % 1010,8 hPa 0,0 l/m 0 min 0 min 0 W/m 9,7 km/h (2 Bft) 97,87 %
26.08.2023 04:52 15,0 C 13,9 C 11,1 C 88 % 1010,8 hPa 0,0 l/m 0 min 0 min 0 W/m 6,4 km/h (2 Bft) 97,87 %
26.08.2023 04:54 14,9 C 13,9 C 11,1 C 88 % 1010,9 hPa 0,0 l/m 0 min 0 min 0 W/m 3,2 km/h (1 Bft) 53,49 %
26.08.2023 04:56 14,9 C 13,9 C 11,1 C 88 % 1010,8 hPa 0,0 l/m 0 min 0 min 0 W/m 9,7 km/h (2 Bft) 100,00 %
26.08.2023 04:58 14,8 C 13,9 C 11,1 C 88 % 1010,8 hPa 0,0 l/m 0 min 0 min 0 W/m 12,9 km/h (3 Bft) 97,87 %
26.08.2023 05:00 14,8 C 13,9 C 11,1 C 88 % 1010,9 hPa 0,0 l/m 0 min 0 min 0 W/m 12,9 km/h (3 Bft) 100,00 %
26.08.2023 05:02 14,8 C 13,9 C 11,1 C 88 % 1010,9 hPa 0,0 l/m 0 min 0 min 0 W/m 6,4 km/h (2 Bft) 100,00 %
26.08.2023 05:04 14,8 C 13,9 C 11,1 C 88 % 1010,9 hPa 0,0 l/m 0 min 0 min 0 W/m 6,4 km/h (2 Bft) 97,87 %
26.08.2023 05:06 14,8 C 13,9 C 11,1 C 88 % 1010,9 hPa 0,0 l/m 0 min 0 min 0 W/m 12,9 km/h (3 Bft) 100,00 %
26.08.2023 05:08 14,7 C 13,9 C 11,1 C 88 % 1010,9 hPa 0,0 l/m 0 min 0 min 0 W/m 19,3 km/h (3 Bft) 100,00 %
26.08.2023 05:10 14,7 C 13,9 C 11,1 C 88 % 1010,8 hPa 0,0 l/m 0 min 0 min 0 W/m 12,9 km/h (3 Bft) 100,00 %
26.08.2023 05:12 14,7 C 13,9 C 11,1 C 88 % 1010,8 hPa 0,0 l/m 0 min 0 min 0 W/m 12,9 km/h (3 Bft) 100,00 %
26.08.2023 05:14 14,7 C 13,9 C 11,1 C 88 % 1010,8 hPa 0,0 l/m 0 min 0 min 0 W/m 12,9 km/h (3 Bft) 100,00 %
26.08.2023 05:16 14,7 C 13,9 C 11,1 C 88 % 1010,8 hPa 0,0 l/m 0 min 0 min 0 W/m 12,9 km/h (3 Bft) 100,00 %
26.08.2023 05:18 14,6 C 13,9 C 11,1 C 88 % 1010,9 hPa 0,0 l/m 0 min 0 min 0 W/m 16,1 km/h (3 Bft) 100,00 %
26.08.2023 05:20 14,6 C 13,9 C 11,1 C 88 % 1010,9 hPa 0,0 l/m 0 min 0 min 0 W/m 9,7 km/h (2 Bft) 100,00 %
26.08.2023 05:22 14,6 C 13,9 C 11,1 C 88 % 1011,0 hPa 0,0 l/m 0 min 0 min 0 W/m 9,7 km/h (2 Bft) 97,87 %
26.08.2023 05:24 14,6 C 13,9 C 11,1 C 88 % 1010,9 hPa 0,0 l/m 0 min 0 min 0 W/m 12,9 km/h (3 Bft) 100,00 %
26.08.2023 05:26 14,6 C 13,9 C 11,1 C 89 % 1010,9 hPa 0,0 l/m 0 min 0 min 0 W/m 6,4 km/h (2 Bft) 100,00 %
26.08.2023 05:28 14,6 C 13,9 C 11,1 C 89 % 1010,9 hPa 0,0 l/m 0 min 0 min 0 W/m 3,2 km/h (1 Bft) 100,00 %
26.08.2023 05:30 14,6 C 13,9 C 11,1 C 89 % 1010,9 hPa 0,0 l/m 0 min 0 min 0 W/m 12,9 km/h (3 Bft) 100,00 %
26.08.2023 05:32 14,5 C 13,9 C 11,1 C 89 % 1011,0 hPa 0,0 l/m 0 min 0 min 0 W/m 19,3 km/h (3 Bft) 100,00 %
26.08.2023 05:34 14,5 C 13,9 C 11,1 C 89 % 1011,0 hPa 0,0 l/m 0 min 0 min 0 W/m 12,9 km/h (3 Bft) 100,00 %
26.08.2023 05:36 14,4 C 13,9 C 11,1 C 89 % 1011,0 hPa 0,0 l/m 0 min 0 min 0 W/m 9,7 km/h (2 Bft) 93,62 %
26.08.2023 05:38 14,4 C 13,9 C 11,1 C 89 % 1011,1 hPa 0,0 l/m 0 min 0 min 0 W/m 12,9 km/h (3 Bft) 95,74 %
26.08.2023 05:40 14,4 C 13,9 C 11,1 C 89 % 1011,0 hPa 0,0 l/m 0 min 0 min 0 W/m 16,1 km/h (3 Bft) 97,83 %
26.08.2023 05:42 14,3 C 13,9 C 11,1 C 89 % 1011,1 hPa 0,0 l/m 0 min 0 min 0 W/m 19,3 km/h (3 Bft) 95,74 %
26.08.2023 05:44 14,3 C 13,3 C 11,1 C 89 % 1011,1 hPa 0,0 l/m 0 min 0 min 0 W/m 16,1 km/h (3 Bft) 97,87 %
26.08.2023 05:46 14,3 C 13,3 C 10,6 C 89 % 1011,1 hPa 0,0 l/m 0 min 0 min 0 W/m 16,1 km/h (3 Bft) 97,87 %
26.08.2023 05:54 14,3 C 13,3 C 10,6 C 89 % 1011,1 hPa 0,0 l/m 0 min 0 min 0 W/m 19,3 km/h (3 Bft) 98,80 %
26.08.2023 05:56 14,3 C 13,3 C 10,6 C 90 % 1011,2 hPa 0,0 l/m 0 min 0 min 0 W/m 9,7 km/h (2 Bft) 97,87 %
26.08.2023 05:58 14,3 C 13,3 C 10,6 C 90 % 1011,2 hPa 0,0 l/m 0 min 0 min 0 W/m 12,9 km/h (3 Bft) 97,83 %
26.08.2023 06:00 14,3 C 13,3 C 10,6 C 90 % 1011,2 hPa 0,0 l/m 0 min 0 min 0 W/m 9,7 km/h (2 Bft) 97,87 %
26.08.2023 06:02 14,3 C 13,3 C 10,6 C 90 % 1011,2 hPa 0,0 l/m 0 min 0 min 0 W/m 9,7 km/h (2 Bft) 97,87 %
26.08.2023 06:04 14,3 C 13,3 C 10,6 C 90 % 1011,2 hPa 0,0 l/m 0 min 0 min 0 W/m 12,9 km/h (3 Bft) 97,87 %
26.08.2023 06:08 14,2 C 13,3 C 10,6 C 90 % 1011,2 hPa 0,0 l/m 0 min 0 min 0 W/m 12,9 km/h (3 Bft) 100,00 %
26.08.2023 06:10 14,2 C 13,3 C 10,6 C 90 % 1011,2 hPa 0,0 l/m 0 min 0 min 0 W/m 12,9 km/h (3 Bft) 97,83 %
26.08.2023 06:12 14,1 C 13,3 C 10,6 C 90 % 1011,2 hPa 0,0 l/m 0 min 0 min 0 W/m 12,9 km/h (3 Bft) 100,00 %
26.08.2023 06:14 14,1 C 13,3 C 10,6 C 90 % 1011,2 hPa 0,0 l/m 0 min 0 min 0 W/m 16,1 km/h (3 Bft) 100,00 %
26.08.2023 06:16 14,1 C 13,3 C 10,6 C 90 % 1011,2 hPa 0,0 l/m 0 min 0 min 0 W/m 12,9 km/h (3 Bft) 97,87 %
26.08.2023 06:18 14,1 C 13,3 C 10,6 C 90 % 1011,2 hPa 0,0 l/m 0 min 0 min 0 W/m 19,3 km/h (3 Bft) 100,00 %
26.08.2023 06:20 14,1 C 13,3 C 10,6 C 90 % 1011,2 hPa 0,0 l/m 0 min 0 min 0 W/m 19,3 km/h (3 Bft) 97,87 %
26.08.2023 06:22 14,1 C 13,3 C 10,6 C 90 % 1011,2 hPa 0,0 l/m 0 min 0 min 0 W/m 19,3 km/h (3 Bft) 97,87 %
26.08.2023 06:24 14,0 C 13,3 C 10,6 C 90 % 1011,2 hPa 0,0 l/m 0 min 0 min 0 W/m 9,7 km/h (2 Bft) 100,00 %
26.08.2023 06:26 14,0 C 13,3 C 10,6 C 90 % 1011,2 hPa 0,0 l/m 0 min 0 min 0 W/m 9,7 km/h (2 Bft) 100,00 %
26.08.2023 06:28 14,0 C 13,3 C 10,6 C 90 % 1011,2 hPa 0,0 l/m 0 min 0 min 0 W/m 16,1 km/h (3 Bft) 97,87 %
26.08.2023 06:30 14,0 C 13,3 C 10,6 C 91 % 1011,3 hPa 0,0 l/m 0 min 0 min 0 W/m 6,4 km/h (2 Bft) 97,87 %
26.08.2023 06:32 14,0 C 13,3 C 10,6 C 91 % 1011,2 hPa 0,0 l/m 0 min 0 min 0 W/m 9,7 km/h (2 Bft) 97,87 %
26.08.2023 06:34 13,9 C 13,3 C 10,6 C 90 % 1011,2 hPa 0,0 l/m 0 min 0 min 0 W/m 12,9 km/h (3 Bft) 97,87 %
26.08.2023 06:36 13,9 C 13,3 C 10,6 C 90 % 1011,2 hPa 0,0 l/m 0 min 0 min 0 W/m 9,7 km/h (2 Bft) 97,83 %
26.08.2023 06:38 13,9 C 13,3 C 10,6 C 90 % 1011,3 hPa 0,0 l/m 0 min 0 min 0 W/m 6,4 km/h (2 Bft) 97,22 %
26.08.2023 06:40 13,9 C 13,3 C 10,6 C 90 % 1011,3 hPa 0,0 l/m 0 min 0 min 0 W/m 12,9 km/h (3 Bft) 98,25 %
26.08.2023 06:42 13,9 C 13,3 C 10,6 C 90 % 1011,3 hPa 0,0 l/m 0 min 0 min 3 W/m 6,4 km/h (2 Bft) 97,87 %
26.08.2023 06:44 13,9 C 13,3 C 10,6 C 90 % 1011,3 hPa 0,0 l/m 0 min 0 min 5 W/m 19,3 km/h (3 Bft) 97,87 %
26.08.2023 06:46 13,9 C 13,3 C 10,6 C 90 % 1011,3 hPa 0,0 l/m 0 min 0 min 6 W/m 19,3 km/h (3 Bft) 95,74 %
26.08.2023 06:48 13,8 C 13,3 C 10,6 C 90 % 1011,3 hPa 0,0 l/m 0 min 0 min 7 W/m 12,9 km/h (3 Bft) 97,87 %
26.08.2023 06:50 13,9 C 13,3 C 10,6 C 90 % 1011,3 hPa 0,0 l/m 0 min 0 min 7 W/m 9,7 km/h (2 Bft) 97,83 %
26.08.2023 06:52 13,9 C 13,3 C 10,6 C 90 % 1011,3 hPa 0,0 l/m 0 min 0 min 9 W/m 12,9 km/h (3 Bft) 93,62 %
26.08.2023 06:54 13,9 C 13,3 C 10,6 C 90 % 1011,3 hPa 0,0 l/m 0 min 0 min 9 W/m 9,7 km/h (2 Bft) 95,74 %
26.08.2023 06:56 13,9 C 13,3 C 10,6 C 90 % 1011,4 hPa 0,0 l/m 0 min 0 min 11 W/m 22,5 km/h (4 Bft) 95,74 %
26.08.2023 06:58 13,8 C 13,3 C 10,6 C 90 % 1011,4 hPa 0,0 l/m 0 min 0 min 11 W/m 6,4 km/h (2 Bft) 97,87 %
26.08.2023 07:00 13,9 C 13,3 C 10,6 C 90 % 1011,4 hPa 0,0 l/m 0 min 0 min 11 W/m 12,9 km/h (3 Bft) 93,62 %
26.08.2023 07:02 13,9 C 13,3 C 10,6 C 90 % 1011,4 hPa 0,0 l/m 0 min 0 min 12 W/m 16,1 km/h (3 Bft) 95,74 %
26.08.2023 07:04 13,9 C 13,3 C 10,6 C 90 % 1011,4 hPa 0,0 l/m 0 min 0 min 12 W/m 12,9 km/h (3 Bft) 97,83 %
26.08.2023 07:06 13,9 C 13,3 C 10,6 C 90 % 1011,5 hPa 0,0 l/m 0 min 0 min 13 W/m 9,7 km/h (2 Bft) 97,92 %
26.08.2023 07:08 13,9 C 13,3 C 10,6 C 90 % 1011,5 hPa 0,0 l/m 0 min 0 min 14 W/m 12,9 km/h (3 Bft) 97,87 %
26.08.2023 07:10 13,9 C 13,3 C 10,6 C 90 % 1011,5 hPa 0,0 l/m 0 min 0 min 14 W/m 12,9 km/h (3 Bft) 97,87 %
26.08.2023 07:12 13,9 C 13,3 C 10,6 C 90 % 1011,6 hPa 0,0 l/m 0 min 0 min 16 W/m 22,5 km/h (4 Bft) 97,87 %
26.08.2023 07:14 13,9 C 13,3 C 10,6 C 90 % 1011,6 hPa 0,0 l/m 0 min 0 min 16 W/m 16,1 km/h (3 Bft) 97,87 %
26.08.2023 07:16 13,9 C 13,3 C 10,6 C 90 % 1011,6 hPa 0,0 l/m 0 min 0 min 17 W/m 16,1 km/h (3 Bft) 95,65 %
26.08.2023 07:18 13,9 C 13,3 C 10,6 C 90 % 1011,6 hPa 0,0 l/m 0 min 0 min 18 W/m 9,7 km/h (2 Bft) 97,87 %
26.08.2023 07:20 13,9 C 13,3 C 10,6 C 90 % 1011,6 hPa 0,0 l/m 0 min 0 min 18 W/m 9,7 km/h (2 Bft) 97,87 %
26.08.2023 07:22 13,9 C 13,3 C 10,6 C 90 % 1011,6 hPa 0,0 l/m 0 min 0 min 19 W/m 12,9 km/h (3 Bft) 93,62 %
26.08.2023 07:24 13,9 C 13,3 C 10,6 C 90 % 1011,8 hPa 0,0 l/m 0 min 0 min 19 W/m 16,1 km/h (3 Bft) 95,74 %
26.08.2023 07:26 13,9 C 13,3 C 10,6 C 90 % 1011,7 hPa 0,0 l/m 0 min 0 min 20 W/m 12,9 km/h (3 Bft) 95,74 %
26.08.2023 07:28 14,0 C 13,3 C 10,6 C 90 % 1011,7 hPa 0,0 l/m 0 min 0 min 21 W/m 12,9 km/h (3 Bft) 95,74 %
26.08.2023 07:30 14,0 C 13,3 C 10,6 C 90 % 1011,8 hPa 0,0 l/m 0 min 0 min 21 W/m 12,9 km/h (3 Bft) 95,65 %
26.08.2023 07:32 14,1 C 13,3 C 10,6 C 90 % 1011,8 hPa 0,0 l/m 0 min 0 min 22 W/m 9,7 km/h (2 Bft) 93,62 %
26.08.2023 07:34 14,1 C 13,9 C 10,6 C 90 % 1011,8 hPa 0,0 l/m 0 min 0 min 23 W/m 12,9 km/h (3 Bft) 95,74 %
26.08.2023 07:36 14,1 C 13,9 C 10,6 C 90 % 1011,8 hPa 0,0 l/m 0 min 0 min 23 W/m 12,9 km/h (3 Bft) 95,74 %
26.08.2023 07:38 14,1 C 13,9 C 10,6 C 90 % 1011,8 hPa 0,0 l/m 0 min 0 min 24 W/m 9,7 km/h (2 Bft) 93,62 %
26.08.2023 07:40 14,1 C 13,9 C 10,6 C 90 % 1011,7 hPa 0,0 l/m 0 min 0 min 25 W/m 12,9 km/h (3 Bft) 95,74 %
26.08.2023 07:42 14,1 C 13,9 C 10,6 C 90 % 1011,8 hPa 0,0 l/m 0 min 0 min 25 W/m 12,9 km/h (3 Bft) 95,65 %
26.08.2023 07:44 14,2 C 13,9 C 10,6 C 90 % 1011,8 hPa 0,0 l/m 0 min 0 min 25 W/m 16,1 km/h (3 Bft) 93,62 %
26.08.2023 07:46 14,2 C 13,9 C 10,6 C 90 % 1011,8 hPa 0,0 l/m 0 min 0 min 26 W/m 12,9 km/h (3 Bft) 95,74 %
26.08.2023 07:48 14,2 C 13,9 C 10,6 C 90 % 1011,8 hPa 0,0 l/m 0 min 0 min 27 W/m 12,9 km/h (3 Bft) 95,74 %
26.08.2023 07:50 14,3 C 13,9 C 11,1 C 90 % 1011,9 hPa 0,0 l/m 0 min 0 min 28 W/m 6,4 km/h (2 Bft) 95,74 %
26.08.2023 07:52 14,3 C 13,9 C 11,1 C 90 % 1011,9 hPa 0,0 l/m 0 min 0 min 28 W/m 22,5 km/h (4 Bft) 95,74 %
26.08.2023 07:54 14,3 C 13,9 C 11,1 C 89 % 1011,9 hPa 0,0 l/m 0 min 0 min 29 W/m 16,1 km/h (3 Bft) 95,65 %
26.08.2023 07:56 14,3 C 13,9 C 11,1 C 89 % 1011,8 hPa 0,0 l/m 0 min 0 min 30 W/m 19,3 km/h (3 Bft) 95,74 %
26.08.2023 07:58 14,3 C 13,9 C 11,1 C 89 % 1011,8 hPa 0,0 l/m 0 min 0 min 30 W/m 16,1 km/h (3 Bft) 97,87 %
26.08.2023 08:00 14,3 C 13,9 C 11,1 C 89 % 1011,8 hPa 0,0 l/m 0 min 0 min 30 W/m 19,3 km/h (3 Bft) 95,74 %
26.08.2023 08:02 14,3 C 13,9 C 11,1 C 89 % 1011,8 hPa 0,0 l/m 0 min 0 min 32 W/m 12,9 km/h (3 Bft) 97,87 %
26.08.2023 08:04 14,3 C 13,9 C 11,1 C 89 % 1011,8 hPa 0,0 l/m 0 min 0 min 32 W/m 16,1 km/h (3 Bft) 97,62 %
26.08.2023 08:06 14,3 C 13,9 C 11,1 C 89 % 1011,9 hPa 0,0 l/m 0 min 0 min 32 W/m 16,1 km/h (3 Bft) 100,00 %
26.08.2023 08:08 14,4 C 14,4 C 11,1 C 88 % 1011,9 hPa 0,0 l/m 0 min 0 min 33 W/m 16,1 km/h (3 Bft) 52,38 %
26.08.2023 08:10 14,4 C 14,4 C 11,1 C 88 % 1011,8 hPa 0,0 l/m 0 min 0 min 33 W/m 12,9 km/h (3 Bft) 100,00 %
26.08.2023 08:12 14,5 C 14,4 C 11,1 C 88 % 1011,9 hPa 0,0 l/m 0 min 0 min 33 W/m 19,3 km/h (3 Bft) 100,00 %
26.08.2023 08:14 14,6 C 14,4 C 11,1 C 88 % 1011,9 hPa 0,0 l/m 0 min 0 min 33 W/m 19,3 km/h (3 Bft) 97,87 %
26.08.2023 08:16 14,6 C 14,4 C 11,1 C 88 % 1011,8 hPa 0,0 l/m 0 min 0 min 33 W/m 22,5 km/h (4 Bft) 100,00 %
26.08.2023 08:18 14,6 C 14,4 C 11,1 C 87 % 1011,8 hPa 0,0 l/m 0 min 0 min 34 W/m 16,1 km/h (3 Bft) 100,00 %
26.08.2023 08:20 14,7 C 14,4 C 11,1 C 87 % 1011,7 hPa 0,0 l/m 0 min 0 min 35 W/m 22,5 km/h (4 Bft) 97,87 %
26.08.2023 08:22 14,8 C 14,4 C 11,1 C 87 % 1011,8 hPa 0,0 l/m 0 min 0 min 35 W/m 16,1 km/h (3 Bft) 100,00 %
26.08.2023 08:24 14,8 C 14,4 C 11,1 C 87 % 1011,7 hPa 0,0 l/m 0 min 0 min 36 W/m 16,1 km/h (3 Bft) 100,00 %
26.08.2023 08:26 14,9 C 14,4 C 11,1 C 87 % 1011,8 hPa 0,0 l/m 0 min 0 min 37 W/m 12,9 km/h (3 Bft) 100,00 %
26.08.2023 08:28 14,9 C 14,4 C 11,1 C 86 % 1011,8 hPa 0,0 l/m 0 min 0 min 37 W/m 19,3 km/h (3 Bft) 100,00 %
26.08.2023 08:30 14,9 C 14,4 C 11,1 C 86 % 1011,8 hPa 0,0 l/m 0 min 0 min 39 W/m 19,3 km/h (3 Bft) 100,00 %
26.08.2023 08:32 15,0 C 14,4 C 11,1 C 86 % 1011,9 hPa 0,0 l/m 0 min 0 min 39 W/m 22,5 km/h (4 Bft) 100,00 %
26.08.2023 08:34 15,1 C 14,4 C 11,7 C 86 % 1011,9 hPa 0,0 l/m 0 min 0 min 40 W/m 19,3 km/h (3 Bft) 97,83 %
26.08.2023 08:36 15,1 C 15,0 C 11,7 C 86 % 1011,9 hPa 0,0 l/m 0 min 0 min 40 W/m 19,3 km/h (3 Bft) 97,87 %
26.08.2023 08:38 15,1 C 15,0 C 11,7 C 86 % 1011,8 hPa 0,0 l/m 0 min 0 min 42 W/m 29,0 km/h (5 Bft) 100,00 %
26.08.2023 08:40 15,2 C 15,0 C 11,7 C 86 % 1011,7 hPa 0,0 l/m 0 min 0 min 42 W/m 22,5 km/h (4 Bft) 97,87 %
26.08.2023 08:42 15,2 C 15,0 C 11,7 C 85 % 1011,7 hPa 0,0 l/m 0 min 0 min 42 W/m 12,9 km/h (3 Bft) 100,00 %
26.08.2023 08:44 15,2 C 15,0 C 11,7 C 85 % 1011,7 hPa 0,0 l/m 0 min 0 min 42 W/m 12,9 km/h (3 Bft) 97,87 %
26.08.2023 08:46 15,3 C 15,0 C 11,7 C 85 % 1011,7 hPa 0,0 l/m 0 min 0 min 42 W/m 16,1 km/h (3 Bft) 100,00 %
26.08.2023 08:48 15,3 C 15,0 C 11,7 C 85 % 1011,8 hPa 0,0 l/m 0 min 0 min 91 W/m 19,3 km/h (3 Bft) 100,00 %
26.08.2023 08:50 15,3 C 15,0 C 11,7 C 85 % 1011,8 hPa 0,0 l/m 2 min 0 min 257 W/m 19,3 km/h (3 Bft) 100,00 %
26.08.2023 08:52 15,4 C 15,0 C 11,7 C 84 % 1011,7 hPa 0,0 l/m 2 min 0 min 295 W/m 16,1 km/h (3 Bft) 100,00 %
26.08.2023 08:54 15,4 C 15,0 C 11,7 C 84 % 1011,8 hPa 0,0 l/m 2 min 0 min 301 W/m 19,3 km/h (3 Bft) 100,00 %
26.08.2023 08:56 15,5 C 15,0 C 11,7 C 84 % 1011,8 hPa 0,0 l/m 2 min 0 min 308 W/m 12,9 km/h (3 Bft) 100,00 %
26.08.2023 08:58 15,6 C 15,6 C 11,7 C 84 % 1011,8 hPa 0,0 l/m 2 min 0 min 314 W/m 22,5 km/h (4 Bft) 97,87 %
26.08.2023 09:00 15,6 C 15,6 C 11,7 C 84 % 1011,8 hPa 0,0 l/m 2 min 0 min 318 W/m 19,3 km/h (3 Bft) 97,83 %
26.08.2023 09:02 15,7 C 15,6 C 11,7 C 84 % 1011,8 hPa 0,0 l/m 2 min 0 min 324 W/m 29,0 km/h (5 Bft) 97,87 %
26.08.2023 09:04 15,7 C 16,7 C 11,7 C 83 % 1011,7 hPa 0,0 l/m 2 min 0 min 329 W/m 25,7 km/h (4 Bft) 100,00 %
26.08.2023 09:06 15,8 C 17,8 C 11,7 C 83 % 1011,6 hPa 0,0 l/m 2 min 0 min 336 W/m 22,5 km/h (4 Bft) 95,74 %
26.08.2023 09:08 15,9 C 18,9 C 11,7 C 83 % 1011,8 hPa 0,0 l/m 2 min 0 min 341 W/m 16,1 km/h (3 Bft) 100,00 %
26.08.2023 09:10 15,9 C 19,4 C 12,2 C 83 % 1011,7 hPa 0,0 l/m 2 min 0 min 347 W/m 12,9 km/h (3 Bft) 100,00 %
26.08.2023 09:12 16,0 C 19,4 C 12,2 C 83 % 1011,7 hPa 0,0 l/m 2 min 0 min 353 W/m 19,3 km/h (3 Bft) 100,00 %
26.08.2023 09:14 16,1 C 18,9 C 12,2 C 83 % 1011,6 hPa 0,0 l/m 2 min 0 min 361 W/m 22,5 km/h (4 Bft) 100,00 %
26.08.2023 09:16 16,2 C 18,9 C 12,2 C 83 % 1011,7 hPa 0,0 l/m 2 min 0 min 363 W/m 19,3 km/h (3 Bft) 93,62 %
26.08.2023 09:18 16,3 C 18,3 C 12,2 C 82 % 1011,6 hPa 0,0 l/m 2 min 0 min 374 W/m 19,3 km/h (3 Bft) 95,74 %
26.08.2023 09:20 16,3 C 18,3 C 12,2 C 82 % 1011,7 hPa 0,0 l/m 2 min 0 min 379 W/m 19,3 km/h (3 Bft) 95,74 %
26.08.2023 09:22 16,4 C 18,3 C 12,2 C 82 % 1011,8 hPa 0,0 l/m 2 min 0 min 382 W/m 16,1 km/h (3 Bft) 95,74 %
26.08.2023 09:24 16,5 C 18,3 C 12,2 C 82 % 1011,8 hPa 0,0 l/m 2 min 0 min 359 W/m 19,3 km/h (3 Bft) 93,48 %
26.08.2023 09:26 16,6 C 18,3 C 12,2 C 82 % 1011,7 hPa 0,0 l/m 2 min 0 min 389 W/m 19,3 km/h (3 Bft) 95,74 %
26.08.2023 09:28 16,6 C 18,3 C 12,8 C 81 % 1011,7 hPa 0,0 l/m 2 min 0 min 402 W/m 12,9 km/h (3 Bft) 95,74 %
26.08.2023 09:30 16,7 C 17,8 C 12,8 C 82 % 1011,7 hPa 0,0 l/m 2 min 0 min 405 W/m 12,9 km/h (3 Bft) 95,74 %
26.08.2023 09:32 16,8 C 17,8 C 12,8 C 82 % 1011,7 hPa 0,0 l/m 2 min 0 min 341 W/m 12,9 km/h (3 Bft) 93,62 %
26.08.2023 09:34 16,8 C 17,2 C 12,8 C 81 % 1011,7 hPa 0,0 l/m 2 min 0 min 245 W/m 25,7 km/h (4 Bft) 95,74 %
26.08.2023 09:36 16,8 C 16,7 C 12,8 C 81 % 1011,7 hPa 0,0 l/m 0 min 0 min 218 W/m 19,3 km/h (3 Bft) 95,74 %
26.08.2023 09:38 16,8 C 16,7 C 12,8 C 81 % 1011,7 hPa 0,0 l/m 0 min 0 min 58 W/m 22,5 km/h (4 Bft) 95,65 %
26.08.2023 09:40 16,9 C 16,7 C 12,8 C 81 % 1011,7 hPa 0,0 l/m 0 min 0 min 56 W/m 16,1 km/h (3 Bft) 95,74 %
26.08.2023 09:42 16,9 C 16,7 C 12,8 C 80 % 1011,7 hPa 0,0 l/m 0 min 0 min 57 W/m 16,1 km/h (3 Bft) 95,74 %
26.08.2023 09:44 16,9 C 16,7 C 12,8 C 80 % 1011,6 hPa 0,0 l/m 0 min 0 min 58 W/m 19,3 km/h (3 Bft) 95,74 %
26.08.2023 09:46 17,0 C 16,7 C 12,8 C 80 % 1011,7 hPa 0,0 l/m 0 min 0 min 64 W/m 22,5 km/h (4 Bft) 95,74 %
26.08.2023 09:48 17,1 C 16,7 C 12,8 C 80 % 1011,6 hPa 0,0 l/m 0 min 0 min 60 W/m 16,1 km/h (3 Bft) 95,74 %
26.08.2023 09:50 17,1 C 16,7 C 12,8 C 80 % 1011,6 hPa 0,0 l/m 0 min 0 min 56 W/m 22,5 km/h (4 Bft) 95,65 %
26.08.2023 09:52 17,1 C 16,7 C 12,8 C 80 % 1011,6 hPa 0,0 l/m 0 min 0 min 72 W/m 19,3 km/h (3 Bft) 97,87 %
26.08.2023 09:54 17,2 C 16,7 C 12,8 C 80 % 1011,6 hPa 0,0 l/m 0 min 0 min 89 W/m 29,0 km/h (5 Bft) 97,87 %
26.08.2023 09:56 17,2 C 16,7 C 13,3 C 79 % 1011,6 hPa 0,0 l/m 0 min 0 min 95 W/m 16,1 km/h (3 Bft) 95,74 %
26.08.2023 09:58 17,3 C 16,7 C 13,3 C 79 % 1011,7 hPa 0,0 l/m 0 min 0 min 63 W/m 19,3 km/h (3 Bft) 97,87 %
26.08.2023 10:00 17,3 C 17,2 C 13,3 C 79 % 1011,8 hPa 0,0 l/m 0 min 0 min 76 W/m 19,3 km/h (3 Bft) 95,74 %
26.08.2023 10:02 17,3 C 17,2 C 13,3 C 78 % 1011,7 hPa 0,0 l/m 0 min 0 min 99 W/m 9,7 km/h (2 Bft) 93,62 %
26.08.2023 10:04 17,4 C 17,2 C 13,3 C 79 % 1011,7 hPa 0,0 l/m 0 min 0 min 177 W/m 12,9 km/h (3 Bft) 95,74 %
26.08.2023 10:06 17,5 C 17,2 C 13,3 C 79 % 1011,7 hPa 0,0 l/m 0 min 0 min 122 W/m 12,9 km/h (3 Bft) 97,87 %
26.08.2023 10:08 17,6 C 17,2 C 13,3 C 79 % 1011,6 hPa 0,0 l/m 0 min 0 min 66 W/m 22,5 km/h (4 Bft) 95,74 %
26.08.2023 10:10 17,6 C 17,2 C 13,3 C 78 % 1011,6 hPa 0,0 l/m 0 min 0 min 79 W/m 16,1 km/h (3 Bft) 95,74 %
26.08.2023 10:12 17,6 C 17,2 C 13,3 C 77 % 1011,8 hPa 0,0 l/m 0 min 0 min 80 W/m 16,1 km/h (3 Bft) 95,74 %
26.08.2023 10:14 17,6 C 17,2 C 13,3 C 77 % 1011,8 hPa 0,0 l/m 0 min 0 min 66 W/m 12,9 km/h (3 Bft) 93,62 %
26.08.2023 10:16 17,7 C 17,2 C 13,3 C 78 % 1011,8 hPa 0,0 l/m 0 min 0 min 159 W/m 16,1 km/h (3 Bft) 93,48 %
26.08.2023 10:18 17,8 C 17,2 C 13,3 C 77 % 1011,7 hPa 0,0 l/m 0 min 0 min 245 W/m 16,1 km/h (3 Bft) 95,74 %
26.08.2023 10:20 17,8 C 17,8 C 13,9 C 77 % 1011,8 hPa 0,0 l/m 2 min 0 min 366 W/m 6,4 km/h (2 Bft) 97,87 %
26.08.2023 10:22 17,9 C 17,8 C 13,9 C 78 % 1011,9 hPa 0,0 l/m 2 min 0 min 311 W/m 12,9 km/h (3 Bft) 95,74 %
26.08.2023 10:24 18,0 C 18,3 C 13,9 C 77 % 1011,8 hPa 0,0 l/m 0 min 0 min 233 W/m 9,7 km/h (2 Bft) 97,87 %
26.08.2023 10:26 18,1 C 18,3 C 13,9 C 77 % 1011,8 hPa 0,0 l/m 0 min 0 min 233 W/m 9,7 km/h (2 Bft) 95,74 %
26.08.2023 10:28 18,2 C 18,3 C 13,9 C 76 % 1011,9 hPa 0,0 l/m 2 min 0 min 344 W/m 16,1 km/h (3 Bft) 97,83 %
26.08.2023 10:30 18,2 C 18,3 C 13,9 C 76 % 1011,9 hPa 0,0 l/m 2 min 0 min 380 W/m 19,3 km/h (3 Bft) 97,87 %
26.08.2023 10:32 18,2 C 18,9 C 14,4 C 76 % 1011,9 hPa 0,0 l/m 2 min 0 min 437 W/m 16,1 km/h (3 Bft) 95,74 %
26.08.2023 10:34 18,2 C 18,9 C 14,4 C 75 % 1011,9 hPa 0,0 l/m 2 min 0 min 517 W/m 9,7 km/h (2 Bft) 97,87 %
26.08.2023 10:36 18,3 C 18,9 C 15,0 C 76 % 1011,9 hPa 0,0 l/m 2 min 0 min 575 W/m 16,1 km/h (3 Bft) 97,87 %
26.08.2023 10:38 18,3 C 18,9 C 15,0 C 76 % 1011,8 hPa 0,0 l/m 2 min 0 min 586 W/m 6,4 km/h (2 Bft) 97,87 %
26.08.2023 10:40 18,4 C 18,9 C 15,6 C 76 % 1011,8 hPa 0,0 l/m 2 min 0 min 592 W/m 16,1 km/h (3 Bft) 97,87 %
26.08.2023 10:42 18,4 C 18,9 C 15,6 C 76 % 1011,9 hPa 0,0 l/m 0 min 0 min 285 W/m 22,5 km/h (4 Bft) 100,00 %
26.08.2023 10:44 18,4 C 18,9 C 15,6 C 74 % 1011,9 hPa 0,0 l/m 0 min 0 min 79 W/m 22,5 km/h (4 Bft) 100,00 %
26.08.2023 10:46 18,5 C 18,3 C 15,6 C 74 % 1011,9 hPa 0,0 l/m 0 min 0 min 78 W/m 29,0 km/h (5 Bft) 100,00 %
26.08.2023 10:48 18,5 C 18,3 C 15,6 C 74 % 1012,0 hPa 0,0 l/m 0 min 0 min 103 W/m 16,1 km/h (3 Bft) 100,00 %
26.08.2023 10:50 18,6 C 18,9 C 15,0 C 74 % 1011,9 hPa 0,0 l/m 0 min 0 min 116 W/m 19,3 km/h (3 Bft) 100,00 %
26.08.2023 10:52 18,6 C 18,9 C 15,0 C 74 % 1012,0 hPa 0,0 l/m 0 min 0 min 106 W/m 16,1 km/h (3 Bft) 100,00 %
26.08.2023 10:54 18,6 C 19,4 C 15,0 C 74 % 1012,0 hPa 0,0 l/m 0 min 0 min 139 W/m 29,0 km/h (5 Bft) 100,00 %
26.08.2023 10:56 18,6 C 19,4 C 15,0 C 74 % 1012,0 hPa 0,0 l/m 0 min 0 min 123 W/m 22,5 km/h (4 Bft) 100,00 %
26.08.2023 10:58 18,7 C 20,0 C 15,0 C 74 % 1011,9 hPa 0,0 l/m 2 min 0 min 323 W/m 16,1 km/h (3 Bft) 97,87 %
26.08.2023 11:00 18,7 C 20,0 C 15,0 C 73 % 1011,9 hPa 0,0 l/m 2 min 0 min 325 W/m 19,3 km/h (3 Bft) 100,00 %
26.08.2023 11:02 18,8 C 20,6 C 15,0 C 74 % 1011,9 hPa 0,0 l/m 0 min 0 min 193 W/m 12,9 km/h (3 Bft) 100,00 %
26.08.2023 11:04 18,8 C 21,1 C 15,0 C 74 % 1011,9 hPa 0,0 l/m 0 min 0 min 186 W/m 16,1 km/h (3 Bft) 100,00 %
26.08.2023 11:06 18,9 C 20,6 C 15,0 C 74 % 1011,9 hPa 0,0 l/m 2 min 0 min 656 W/m 12,9 km/h (3 Bft) 100,00 %
26.08.2023 11:08 19,0 C 20,6 C 15,0 C 73 % 1011,9 hPa 0,0 l/m 2 min 0 min 657 W/m 12,9 km/h (3 Bft) 100,00 %
26.08.2023 11:10 19,1 C 20,0 C 15,0 C 73 % 1011,9 hPa 0,0 l/m 2 min 0 min 661 W/m 6,4 km/h (2 Bft) 100,00 %
26.08.2023 11:12 19,1 C 20,0 C 15,0 C 73 % 1012,0 hPa 0,0 l/m 2 min 0 min 670 W/m 25,7 km/h (4 Bft) 100,00 %
26.08.2023 11:14 19,1 C 20,0 C 15,0 C 71 % 1011,9 hPa 0,0 l/m 2 min 0 min 674 W/m 25,7 km/h (4 Bft) 95,74 %
26.08.2023 11:16 19,1 C 20,6 C 15,0 C 72 % 1011,9 hPa 0,0 l/m 2 min 0 min 674 W/m 19,3 km/h (3 Bft) 100,00 %
26.08.2023 11:18 19,2 C 21,1 C 15,0 C 73 % 1011,9 hPa 0,0 l/m 2 min 0 min 682 W/m 19,3 km/h (3 Bft) 100,00 %
26.08.2023 11:20 19,3 C 21,1 C 15,0 C 72 % 1012,0 hPa 0,0 l/m 2 min 0 min 689 W/m 19,3 km/h (3 Bft) 100,00 %
26.08.2023 11:22 19,3 C 20,6 C 15,6 C 72 % 1012,0 hPa 0,0 l/m 2 min 0 min 694 W/m 19,3 km/h (3 Bft) 100,00 %
26.08.2023 11:24 19,3 C 20,6 C 15,6 C 72 % 1012,0 hPa 0,0 l/m 2 min 0 min 694 W/m 22,5 km/h (4 Bft) 97,87 %
26.08.2023 11:26 19,2 C 20,0 C 15,6 C 71 % 1012,1 hPa 0,0 l/m 2 min 0 min 694 W/m 19,3 km/h (3 Bft) 97,87 %
26.08.2023 11:28 19,2 C 20,6 C 15,6 C 71 % 1012,0 hPa 0,0 l/m 2 min 0 min 709 W/m 16,1 km/h (3 Bft) 95,74 %
26.08.2023 11:30 19,2 C 20,6 C 15,6 C 71 % 1012,0 hPa 0,0 l/m 2 min 0 min 625 W/m 19,3 km/h (3 Bft) 97,87 %
26.08.2023 11:32 19,3 C 20,6 C 15,6 C 71 % 1012,0 hPa 0,0 l/m 0 min 0 min 276 W/m 16,1 km/h (3 Bft) 95,74 %
26.08.2023 11:34 19,3 C 20,6 C 15,6 C 71 % 1012,1 hPa 0,0 l/m 0 min 0 min 174 W/m 19,3 km/h (3 Bft) 95,65 %
26.08.2023 11:36 19,4 C 20,6 C 15,6 C 71 % 1012,0 hPa 0,0 l/m 0 min 0 min 174 W/m 25,7 km/h (4 Bft) 95,74 %
26.08.2023 11:38 19,4 C 20,0 C 15,6 C 71 % 1012,1 hPa 0,0 l/m 2 min 0 min 406 W/m 25,7 km/h (4 Bft) 93,62 %
26.08.2023 11:40 19,4 C 20,0 C 15,6 C 71 % 1012,0 hPa 0,0 l/m 2 min 0 min 484 W/m 22,5 km/h (4 Bft) 97,87 %
26.08.2023 11:42 19,5 C 20,0 C 16,7 C 71 % 1012,0 hPa 0,0 l/m 2 min 0 min 710 W/m 22,5 km/h (4 Bft) 97,87 %
26.08.2023 11:44 19,6 C 20,0 C 17,2 C 70 % 1011,9 hPa 0,0 l/m 2 min 0 min 729 W/m 16,1 km/h (3 Bft) 97,87 %
26.08.2023 11:46 19,6 C 20,6 C 17,8 C 70 % 1011,9 hPa 0,0 l/m 2 min 0 min 756 W/m 25,7 km/h (4 Bft) 95,65 %
26.08.2023 11:48 19,7 C 21,1 C 17,8 C 71 % 1011,8 hPa 0,0 l/m 2 min 0 min 731 W/m 16,1 km/h (3 Bft) 97,87 %
26.08.2023 11:50 19,8 C 22,8 C 18,3 C 70 % 1012,0 hPa 0,0 l/m 2 min 0 min 734 W/m 22,5 km/h (4 Bft) 97,87 %
26.08.2023 11:52 19,8 C 23,3 C 18,3 C 70 % 1011,9 hPa 0,0 l/m 2 min 0 min 756 W/m 16,1 km/h (3 Bft) 97,87 %
26.08.2023 11:54 19,8 C 23,9 C 18,9 C 70 % 1011,8 hPa 0,0 l/m 2 min 0 min 763 W/m 16,1 km/h (3 Bft) 95,74 %
26.08.2023 11:56 19,9 C 23,3 C 18,9 C 71 % 1011,8 hPa 0,0 l/m 2 min 0 min 748 W/m 12,9 km/h (3 Bft) 95,74 %
26.08.2023 11:58 20,0 C 23,9 C 18,9 C 71 % 1012,0 hPa 0,0 l/m 2 min 0 min 752 W/m 16,1 km/h (3 Bft) 97,87 %
26.08.2023 12:00 20,0 C 24,4 C 19,4 C 70 % 1011,9 hPa 0,0 l/m 2 min 0 min 763 W/m 12,9 km/h (3 Bft) 100,00 %
26.08.2023 12:02 20,1 C 24,4 C 19,4 C 70 % 1012,0 hPa 0,0 l/m 2 min 0 min 770 W/m 16,1 km/h (3 Bft) 100,00 %
26.08.2023 12:04 20,1 C 24,4 C 19,4 C 69 % 1012,0 hPa 0,0 l/m 2 min 0 min 768 W/m 6,4 km/h (2 Bft) 98,00 %
26.08.2023 12:08 20,1 C 23,3 C 19,4 C 69 % 1011,9 hPa 0,0 l/m 4 min 0 min 615 W/m 19,3 km/h (3 Bft) 100,00 %
26.08.2023 12:10 20,1 C 25,0 C 20,0 C 69 % 1011,9 hPa 0,0 l/m 2 min 0 min 502 W/m 12,9 km/h (3 Bft) 97,87 %
26.08.2023 12:12 20,1 C 26,1 C 20,6 C 69 % 1011,9 hPa 0,0 l/m 2 min 0 min 768 W/m 16,1 km/h (3 Bft) 97,87 %
26.08.2023 12:14 20,2 C 26,7 C 21,1 C 70 % 1011,8 hPa 0,0 l/m 2 min 0 min 774 W/m 12,9 km/h (3 Bft) 100,00 %
26.08.2023 12:16 20,3 C 27,8 C 21,7 C 71 % 1011,9 hPa 0,0 l/m 2 min 0 min 775 W/m 22,5 km/h (4 Bft) 100,00 %
26.08.2023 12:18 20,4 C 28,3 C 20,6 C 69 % 1011,8 hPa 0,0 l/m 2 min 0 min 773 W/m 12,9 km/h (3 Bft) 100,00 %
26.08.2023 12:20 20,6 C 28,3 C 20,0 C 69 % 1011,9 hPa 0,0 l/m 2 min 0 min 780 W/m 12,9 km/h (3 Bft) 100,00 %
26.08.2023 12:22 20,7 C 28,3 C 19,4 C 69 % 1011,8 hPa 0,0 l/m 2 min 0 min 796 W/m 12,9 km/h (3 Bft) 100,00 %
26.08.2023 12:24 20,8 C 28,9 C 18,9 C 69 % 1011,7 hPa 0,0 l/m 2 min 0 min 818 W/m 9,7 km/h (2 Bft) 100,00 %
26.08.2023 12:26 20,8 C 27,2 C 18,9 C 67 % 1011,8 hPa 0,0 l/m 2 min 0 min 810 W/m 19,3 km/h (3 Bft) 100,00 %
26.08.2023 12:28 20,8 C 25,0 C 18,3 C 66 % 1011,9 hPa 0,0 l/m 2 min 0 min 790 W/m 32,2 km/h (5 Bft) 97,87 %
26.08.2023 12:30 20,8 C 23,3 C 17,8 C 67 % 1011,8 hPa 0,0 l/m 2 min 0 min 788 W/m 19,3 km/h (3 Bft) 97,83 %
26.08.2023 12:32 20,9 C 22,2 C 17,2 C 67 % 1012,0 hPa 0,0 l/m 2 min 0 min 797 W/m 16,1 km/h (3 Bft) 97,87 %
26.08.2023 12:34 20,9 C 22,2 C 17,2 C 67 % 1012,0 hPa 0,0 l/m 2 min 0 min 813 W/m 16,1 km/h (3 Bft) 97,87 %
26.08.2023 12:36 20,9 C 21,1 C 16,7 C 66 % 1011,9 hPa 0,0 l/m 2 min 0 min 802 W/m 19,3 km/h (3 Bft) 95,74 %
26.08.2023 12:38 20,8 C 21,1 C 16,7 C 67 % 1011,8 hPa 0,0 l/m 2 min 0 min 825 W/m 16,1 km/h (3 Bft) 95,74 %
26.08.2023 12:40 20,8 C 21,1 C 16,7 C 66 % 1011,9 hPa 0,0 l/m 2 min 0 min 831 W/m 32,2 km/h (5 Bft) 95,74 %
26.08.2023 12:42 20,9 C 21,1 C 16,7 C 67 % 1012,0 hPa 0,0 l/m 2 min 0 min 766 W/m 16,1 km/h (3 Bft) 97,87 %
26.08.2023 12:44 20,9 C 21,1 C 16,7 C 67 % 1011,9 hPa 0,0 l/m 2 min 0 min 650 W/m 19,3 km/h (3 Bft) 97,83 %
26.08.2023 12:46 21,0 C 21,1 C 16,7 C 66 % 1011,9 hPa 0,0 l/m 2 min 0 min 650 W/m 12,9 km/h (3 Bft) 97,87 %
26.08.2023 12:48 21,1 C 21,1 C 16,7 C 68 % 1011,8 hPa 0,0 l/m 2 min 0 min 650 W/m 9,7 km/h (2 Bft) 97,87 %
26.08.2023 12:50 21,1 C 21,1 C 17,2 C 67 % 1011,8 hPa 0,0 l/m 2 min 0 min 650 W/m 16,1 km/h (3 Bft) 95,74 %
26.08.2023 12:52 21,2 C 21,1 C 17,2 C 67 % 1011,8 hPa 0,0 l/m 2 min 0 min 650 W/m 19,3 km/h (3 Bft) 97,87 %
26.08.2023 12:54 21,3 C 21,7 C 17,2 C 68 % 1011,8 hPa 0,0 l/m 2 min 0 min 493 W/m 12,9 km/h (3 Bft) 97,83 %
26.08.2023 12:56 21,3 C 21,7 C 17,2 C 68 % 1011,9 hPa 0,0 l/m 0 min 0 min 288 W/m 12,9 km/h (3 Bft) 95,74 %
26.08.2023 12:58 21,4 C 21,7 C 17,2 C 67 % 1011,9 hPa 0,0 l/m 2 min 0 min 712 W/m 19,3 km/h (3 Bft) 95,74 %
26.08.2023 13:00 21,5 C 21,7 C 17,8 C 67 % 1011,9 hPa 0,0 l/m 2 min 0 min 743 W/m 12,9 km/h (3 Bft) 97,87 %
26.08.2023 13:02 21,5 C 21,7 C 17,2 C 64 % 1012,0 hPa 0,0 l/m 2 min 0 min 448 W/m 25,7 km/h (4 Bft) 97,87 %
26.08.2023 13:04 21,4 C 21,1 C 17,2 C 64 % 1011,8 hPa 0,0 l/m 2 min 0 min 386 W/m 25,7 km/h (4 Bft) 98,00 %
26.08.2023 13:06 21,5 C 21,7 C 17,2 C 65 % 1011,8 hPa 0,0 l/m 0 min 0 min 260 W/m 22,5 km/h (4 Bft) 98,28 %
26.08.2023 13:08 21,6 C 21,7 C 17,2 C 65 % 1011,8 hPa 0,0 l/m 0 min 0 min 270 W/m 32,2 km/h (5 Bft) 94,29 %
26.08.2023 13:10 21,6 C 21,7 C 17,8 C 66 % 1011,8 hPa 0,0 l/m 0 min 0 min 257 W/m 16,1 km/h (3 Bft) 97,87 %
26.08.2023 13:12 21,6 C 22,2 C 17,8 C 67 % 1011,8 hPa 0,0 l/m 0 min 0 min 244 W/m 9,7 km/h (2 Bft) 95,74 %
26.08.2023 13:14 21,7 C 22,2 C 17,8 C 67 % 1011,7 hPa 0,0 l/m 0 min 0 min 277 W/m 12,9 km/h (3 Bft) 97,87 %
26.08.2023 13:16 21,8 C 22,2 C 17,8 C 67 % 1011,8 hPa 0,0 l/m 0 min 0 min 311 W/m 19,3 km/h (3 Bft) 95,74 %
26.08.2023 13:18 21,8 C 22,2 C 17,8 C 65 % 1011,7 hPa 0,0 l/m 0 min 0 min 304 W/m 25,7 km/h (4 Bft) 97,87 %
26.08.2023 13:20 21,8 C 21,7 C 17,8 C 64 % 1011,7 hPa 0,0 l/m 0 min 0 min 321 W/m 16,1 km/h (3 Bft) 98,11 %
26.08.2023 13:22 21,8 C 21,7 C 17,8 C 65 % 1011,7 hPa 0,0 l/m 2 min 0 min 563 W/m 12,9 km/h (3 Bft) 96,00 %
26.08.2023 13:24 21,9 C 22,2 C 17,8 C 66 % 1011,7 hPa 0,0 l/m 2 min 0 min 400 W/m 12,9 km/h (3 Bft) 97,87 %
26.08.2023 13:26 22,0 C 22,2 C 17,8 C 65 % 1011,6 hPa 0,0 l/m 2 min 0 min 612 W/m 22,5 km/h (4 Bft) 97,30 %
26.08.2023 13:28 22,0 C 21,7 C 17,8 C 64 % 1011,8 hPa 0,0 l/m 2 min 0 min 380 W/m 19,3 km/h (3 Bft) 98,15 %
26.08.2023 13:30 21,9 C 21,7 C 17,8 C 64 % 1011,6 hPa 0,0 l/m 0 min 0 min 279 W/m 19,3 km/h (3 Bft) 93,62 %
26.08.2023 13:32 21,8 C 21,1 C 17,2 C 64 % 1011,7 hPa 0,0 l/m 0 min 0 min 279 W/m 12,9 km/h (3 Bft) 95,92 %
26.08.2023 13:34 21,7 C 21,1 C 17,2 C 65 % 1011,7 hPa 0,0 l/m 0 min 0 min 279 W/m 12,9 km/h (3 Bft) 95,74 %
26.08.2023 13:36 21,7 C 21,7 C 17,2 C 66 % 1011,7 hPa 0,0 l/m 0 min 0 min 348 W/m 12,9 km/h (3 Bft) 93,62 %
26.08.2023 13:38 21,6 C 21,1 C 17,2 C 65 % 1011,7 hPa 0,0 l/m 2 min 0 min 427 W/m 19,3 km/h (3 Bft) 95,74 %
26.08.2023 13:40 21,5 C 21,7 C 17,2 C 65 % 1011,6 hPa 0,0 l/m 2 min 0 min 427 W/m 12,9 km/h (3 Bft) 93,62 %
26.08.2023 13:42 21,5 C 21,7 C 17,8 C 65 % 1011,6 hPa 0,0 l/m 2 min 0 min 382 W/m 16,1 km/h (3 Bft) 95,65 %
26.08.2023 13:44 21,6 C 22,2 C 17,8 C 65 % 1011,6 hPa 0,0 l/m 0 min 0 min 336 W/m 16,1 km/h (3 Bft) 95,74 %
26.08.2023 13:46 21,6 C 22,8 C 17,8 C 66 % 1011,6 hPa 0,0 l/m 2 min 0 min 817 W/m 6,4 km/h (2 Bft) 93,62 %
26.08.2023 13:48 21,8 C 23,3 C 17,8 C 67 % 1011,6 hPa 0,0 l/m 2 min 0 min 968 W/m 12,9 km/h (3 Bft) 93,62 %
26.08.2023 13:50 22,0 C 23,3 C 17,8 C 66 % 1011,5 hPa 0,0 l/m 2 min 0 min 962 W/m 16,1 km/h (3 Bft) 93,62 %
26.08.2023 13:52 22,1 C 22,2 C 17,8 C 64 % 1011,6 hPa 0,0 l/m 2 min 0 min 688 W/m 22,5 km/h (4 Bft) 91,49 %
26.08.2023 13:54 21,9 C 22,8 C 17,8 C 64 % 1011,6 hPa 0,0 l/m 0 min 0 min 150 W/m 12,9 km/h (3 Bft) 95,74 %
26.08.2023 13:56 21,8 C 22,8 C 17,2 C 64 % 1011,6 hPa 0,0 l/m 0 min 0 min 301 W/m 16,1 km/h (3 Bft) 95,65 %
26.08.2023 13:58 21,8 C 22,2 C 17,2 C 65 % 1011,6 hPa 0,0 l/m 0 min 0 min 261 W/m 16,1 km/h (3 Bft) 93,62 %
26.08.2023 14:00 21,7 C 22,2 C 17,2 C 65 % 1011,6 hPa 0,0 l/m 0 min 0 min 209 W/m 19,3 km/h (3 Bft) 95,74 %
26.08.2023 14:02 21,6 C 21,7 C 17,2 C 65 % 1011,7 hPa 0,0 l/m 0 min 0 min 207 W/m 25,7 km/h (4 Bft) 95,74 %
26.08.2023 14:04 21,6 C 23,9 C 17,2 C 66 % 1011,6 hPa 0,0 l/m 0 min 0 min 206 W/m 12,9 km/h (3 Bft) 97,87 %
26.08.2023 14:06 21,6 C 22,8 C 17,2 C 66 % 1011,6 hPa 0,0 l/m 0 min 0 min 214 W/m 12,9 km/h (3 Bft) 100,00 %
26.08.2023 14:08 21,6 C 22,8 C 17,2 C 65 % 1011,5 hPa 0,0 l/m 0 min 0 min 328 W/m 22,5 km/h (4 Bft) 97,83 %
26.08.2023 14:10 21,5 C 22,8 C 17,2 C 65 % 1011,6 hPa 0,0 l/m 0 min 0 min 359 W/m 12,9 km/h (3 Bft) 100,00 %
26.08.2023 14:12 21,5 C 22,8 C 17,2 C 65 % 1011,5 hPa 0,0 l/m 0 min 0 min 348 W/m 12,9 km/h (3 Bft) 97,87 %
26.08.2023 14:14 21,6 C 22,8 C 17,2 C 66 % 1011,5 hPa 0,0 l/m 0 min 0 min 272 W/m 12,9 km/h (3 Bft) 100,00 %
26.08.2023 14:16 21,6 C 22,2 C 17,2 C 66 % 1011,5 hPa 0,0 l/m 0 min 0 min 178 W/m 6,4 km/h (2 Bft) 100,00 %
26.08.2023 14:18 21,6 C 21,7 C 17,2 C 67 % 1011,6 hPa 0,0 l/m 0 min 0 min 169 W/m 6,4 km/h (2 Bft) 100,00 %
26.08.2023 14:20 21,6 C 21,1 C 17,2 C 67 % 1011,6 hPa 0,0 l/m 0 min 0 min 183 W/m 12,9 km/h (3 Bft) 100,00 %
26.08.2023 14:22 21,4 C 21,1 C 17,2 C 66 % 1011,5 hPa 0,0 l/m 0 min 0 min 195 W/m 16,1 km/h (3 Bft) 100,00 %
26.08.2023 14:24 21,4 C 21,1 C 17,2 C 66 % 1011,5 hPa 0,0 l/m 0 min 0 min 217 W/m 12,9 km/h (3 Bft) 100,00 %
26.08.2023 14:26 21,3 C 21,1 C 17,2 C 67 % 1011,6 hPa 0,0 l/m 0 min 0 min 225 W/m 9,7 km/h (2 Bft) 100,00 %
26.08.2023 14:28 21,3 C 21,1 C 17,2 C 66 % 1011,5 hPa 0,0 l/m 0 min 0 min 221 W/m 19,3 km/h (3 Bft) 100,00 %
26.08.2023 14:30 21,3 C 21,1 C 17,2 C 66 % 1011,6 hPa 0,0 l/m 0 min 0 min 238 W/m 6,4 km/h (2 Bft) 100,00 %
26.08.2023 14:32 21,3 C 23,3 C 17,2 C 66 % 1011,5 hPa 0,0 l/m 0 min 0 min 267 W/m 6,4 km/h (2 Bft) 97,87 %
26.08.2023 14:34 21,4 C 22,8 C 17,2 C 66 % 1011,5 hPa 0,0 l/m 0 min 0 min 267 W/m 12,9 km/h (3 Bft) 100,00 %
26.08.2023 14:36 21,4 C 22,2 C 17,2 C 66 % 1011,5 hPa 0,0 l/m 0 min 0 min 169 W/m 9,7 km/h (2 Bft) 100,00 %
26.08.2023 14:38 21,4 C 21,7 C 17,2 C 65 % 1011,5 hPa 0,0 l/m 0 min 0 min 139 W/m 12,9 km/h (3 Bft) 100,00 %
26.08.2023 14:40 21,4 C 21,7 C 17,2 C 65 % 1011,5 hPa 0,0 l/m 0 min 0 min 173 W/m 16,1 km/h (3 Bft) 100,00 %
26.08.2023 14:42 21,4 C 21,7 C 17,2 C 65 % 1011,5 hPa 0,0 l/m 0 min 0 min 286 W/m 16,1 km/h (3 Bft) 100,00 %
26.08.2023 14:44 21,4 C 21,7 C 17,2 C 65 % 1011,5 hPa 0,0 l/m 0 min 0 min 259 W/m 6,4 km/h (2 Bft) 100,00 %
26.08.2023 14:46 21,5 C 22,8 C 17,2 C 65 % 1011,5 hPa 0,0 l/m 0 min 0 min 253 W/m 16,1 km/h (3 Bft) 100,00 %
26.08.2023 14:48 21,6 C 23,9 C 17,2 C 65 % 1011,5 hPa 0,0 l/m 0 min 0 min 340 W/m 22,5 km/h (4 Bft) 97,83 %
26.08.2023 14:50 21,7 C 23,3 C 17,8 C 64 % 1011,5 hPa 0,0 l/m 2 min 0 min 642 W/m 22,5 km/h (4 Bft) 100,00 %
26.08.2023 14:52 21,8 C 22,8 C 17,2 C 64 % 1011,5 hPa 0,0 l/m 0 min 0 min 178 W/m 12,9 km/h (3 Bft) 98,11 %
26.08.2023 14:54 21,8 C 22,2 C 17,2 C 64 % 1011,4 hPa 0,0 l/m 0 min 0 min 179 W/m 0,0 km/h (0 Bft) 100,00 %
26.08.2023 14:56 21,7 C 21,7 C 17,2 C 64 % 1011,4 hPa 0,0 l/m 0 min 0 min 133 W/m 9,7 km/h (2 Bft) 100,00 %
26.08.2023 14:58 21,7 C 21,1 C 17,2 C 64 % 1011,5 hPa 0,0 l/m 0 min 0 min 147 W/m 16,1 km/h (3 Bft) 100,00 %
26.08.2023 15:00 21,6 C 21,7 C 17,2 C 64 % 1011,5 hPa 0,0 l/m 0 min 0 min 185 W/m 9,7 km/h (2 Bft) 92,11 %
26.08.2023 15:02 21,6 C 22,8 C 17,2 C 66 % 1011,5 hPa 0,0 l/m 0 min 0 min 190 W/m 6,4 km/h (2 Bft) 95,74 %
26.08.2023 15:04 21,7 C 24,4 C 17,2 C 65 % 1011,5 hPa 0,0 l/m 2 min 0 min 807 W/m 16,1 km/h (3 Bft) 95,92 %
26.08.2023 15:06 21,8 C 25,6 C 17,2 C 65 % 1011,4 hPa 0,0 l/m 2 min 0 min 796 W/m 9,7 km/h (2 Bft) 96,67 %
26.08.2023 15:08 21,9 C 25,0 C 17,8 C 66 % 1011,3 hPa 0,0 l/m 2 min 0 min 788 W/m 16,1 km/h (3 Bft) 100,00 %
26.08.2023 15:10 22,1 C 24,4 C 17,8 C 65 % 1011,3 hPa 0,0 l/m 0 min 0 min 246 W/m 16,1 km/h (3 Bft) 95,74 %
26.08.2023 15:12 22,2 C 24,4 C 17,8 C 63 % 1011,5 hPa 0,0 l/m 2 min 0 min 599 W/m 19,3 km/h (3 Bft) 95,74 %
26.08.2023 15:14 22,3 C 24,4 C 17,8 C 63 % 1011,4 hPa 0,0 l/m 2 min 0 min 819 W/m 19,3 km/h (3 Bft) 97,83 %
26.08.2023 15:16 22,5 C 23,9 C 17,8 C 62 % 1011,4 hPa 0,0 l/m 2 min 0 min 809 W/m 32,2 km/h (5 Bft) 97,87 %
26.08.2023 15:18 22,6 C 23,9 C 17,8 C 61 % 1011,5 hPa 0,0 l/m 2 min 0 min 809 W/m 22,5 km/h (4 Bft) 97,87 %
26.08.2023 15:20 22,6 C 22,8 C 17,8 C 61 % 1011,5 hPa 0,0 l/m 2 min 0 min 575 W/m 22,5 km/h (4 Bft) 97,87 %
26.08.2023 15:22 22,6 C 23,3 C 17,8 C 62 % 1011,5 hPa 0,0 l/m 0 min 0 min 222 W/m 6,4 km/h (2 Bft) 97,87 %
26.08.2023 15:24 22,6 C 23,3 C 17,8 C 62 % 1011,5 hPa 0,0 l/m 2 min 0 min 886 W/m 12,9 km/h (3 Bft) 97,87 %
26.08.2023 15:26 22,7 C 23,3 C 17,8 C 62 % 1011,5 hPa 0,0 l/m 2 min 0 min 886 W/m 12,9 km/h (3 Bft) 97,87 %
26.08.2023 15:28 22,8 C 23,9 C 18,3 C 62 % 1011,5 hPa 0,0 l/m 2 min 0 min 869 W/m 19,3 km/h (3 Bft) 95,65 %
26.08.2023 15:30 22,9 C 23,9 C 18,3 C 62 % 1011,4 hPa 0,0 l/m 2 min 0 min 861 W/m 16,1 km/h (3 Bft) 95,74 %
26.08.2023 15:32 22,9 C 23,3 C 18,3 C 61 % 1011,5 hPa 0,0 l/m 2 min 0 min 861 W/m 19,3 km/h (3 Bft) 95,74 %
26.08.2023 15:34 22,9 C 23,3 C 18,3 C 60 % 1011,5 hPa 0,0 l/m 0 min 0 min 243 W/m 22,5 km/h (4 Bft) 95,74 %
26.08.2023 15:36 22,9 C 22,8 C 17,8 C 60 % 1011,4 hPa 0,0 l/m 0 min 0 min 203 W/m 29,0 km/h (5 Bft) 95,74 %
26.08.2023 15:38 22,8 C 22,2 C 17,8 C 59 % 1011,5 hPa 0,0 l/m 0 min 0 min 199 W/m 19,3 km/h (3 Bft) 97,87 %
26.08.2023 15:40 22,7 C 22,2 C 17,8 C 61 % 1011,4 hPa 0,0 l/m 0 min 0 min 215 W/m 9,7 km/h (2 Bft) 93,48 %
26.08.2023 15:42 22,7 C 22,2 C 17,8 C 62 % 1011,4 hPa 0,0 l/m 0 min 0 min 235 W/m 12,9 km/h (3 Bft) 95,74 %
26.08.2023 15:44 22,6 C 22,2 C 17,8 C 61 % 1011,4 hPa 0,0 l/m 0 min 0 min 265 W/m 16,1 km/h (3 Bft) 95,74 %
26.08.2023 15:46 22,4 C 21,7 C 17,8 C 61 % 1011,5 hPa 0,0 l/m 0 min 0 min 275 W/m 35,4 km/h (5 Bft) 95,74 %
26.08.2023 15:48 22,2 C 22,2 C 17,8 C 61 % 1011,5 hPa 0,0 l/m 0 min 0 min 277 W/m 19,3 km/h (3 Bft) 95,74 %
26.08.2023 15:50 22,2 C 22,8 C 17,8 C 61 % 1011,5 hPa 0,0 l/m 0 min 0 min 278 W/m 22,5 km/h (4 Bft) 95,74 %
26.08.2023 15:52 22,3 C 23,9 C 17,8 C 61 % 1011,4 hPa 0,0 l/m 2 min 0 min 824 W/m 25,7 km/h (4 Bft) 97,87 %
26.08.2023 15:54 22,4 C 23,9 C 17,8 C 62 % 1011,4 hPa 0,0 l/m 2 min 0 min 761 W/m 22,5 km/h (4 Bft) 97,83 %
26.08.2023 15:56 22,6 C 23,9 C 18,3 C 60 % 1011,4 hPa 0,0 l/m 2 min 0 min 735 W/m 29,0 km/h (5 Bft) 97,87 %
26.08.2023 15:58 22,7 C 23,9 C 18,3 C 61 % 1011,3 hPa 0,0 l/m 2 min 0 min 757 W/m 25,7 km/h (4 Bft) 97,87 %
26.08.2023 16:00 22,7 C 23,9 C 18,3 C 60 % 1011,3 hPa 0,0 l/m 2 min 0 min 757 W/m 32,2 km/h (5 Bft) 95,74 %
26.08.2023 16:02 22,8 C 23,9 C 17,8 C 60 % 1011,4 hPa 0,0 l/m 2 min 0 min 737 W/m 25,7 km/h (4 Bft) 93,62 %
26.08.2023 16:04 22,8 C 23,3 C 17,8 C 60 % 1011,3 hPa 0,0 l/m 2 min 0 min 717 W/m 16,1 km/h (3 Bft) 100,00 %
26.08.2023 16:06 22,8 C 23,3 C 17,8 C 60 % 1011,3 hPa 0,0 l/m 2 min 0 min 717 W/m 9,7 km/h (2 Bft) 96,55 %
26.08.2023 16:08 22,9 C 23,3 C 18,3 C 60 % 1011,3 hPa 0,0 l/m 2 min 0 min 464 W/m 16,1 km/h (3 Bft) 97,14 %
26.08.2023 16:10 22,8 C 22,8 C 17,8 C 60 % 1011,3 hPa 0,0 l/m 0 min 0 min 198 W/m 16,1 km/h (3 Bft) 100,00 %
26.08.2023 16:12 22,9 C 22,8 C 17,8 C 61 % 1011,4 hPa 0,0 l/m 0 min 0 min 192 W/m 9,7 km/h (2 Bft) 95,74 %
26.08.2023 16:14 22,9 C 22,8 C 18,3 C 61 % 1011,3 hPa 0,0 l/m 2 min 0 min 676 W/m 12,9 km/h (3 Bft) 100,00 %
26.08.2023 16:16 22,9 C 22,8 C 18,3 C 60 % 1011,2 hPa 0,0 l/m 2 min 0 min 731 W/m 19,3 km/h (3 Bft) 100,00 %
26.08.2023 16:18 22,9 C 22,8 C 18,3 C 61 % 1011,3 hPa 0,0 l/m 2 min 0 min 670 W/m 12,9 km/h (3 Bft) 100,00 %
26.08.2023 16:20 23,0 C 22,8 C 18,3 C 61 % 1011,3 hPa 0,0 l/m 2 min 0 min 649 W/m 19,3 km/h (3 Bft) 100,00 %
26.08.2023 16:22 23,0 C 22,8 C 18,3 C 61 % 1011,3 hPa 0,0 l/m 2 min 0 min 642 W/m 12,9 km/h (3 Bft) 97,83 %
26.08.2023 16:24 23,1 C 22,8 C 18,3 C 60 % 1011,2 hPa 0,0 l/m 2 min 0 min 637 W/m 12,9 km/h (3 Bft) 100,00 %
26.08.2023 16:26 23,1 C 23,3 C 18,3 C 62 % 1011,2 hPa 0,0 l/m 2 min 0 min 630 W/m 9,7 km/h (2 Bft) 100,00 %
26.08.2023 16:28 23,2 C 23,3 C 18,3 C 61 % 1011,2 hPa 0,0 l/m 2 min 0 min 624 W/m 12,9 km/h (3 Bft) 100,00 %
26.08.2023 16:30 23,2 C 22,8 C 18,3 C 60 % 1011,3 hPa 0,0 l/m 2 min 0 min 615 W/m 19,3 km/h (3 Bft) 100,00 %
26.08.2023 16:32 23,1 C 22,8 C 18,3 C 62 % 1011,2 hPa 0,0 l/m 2 min 0 min 609 W/m 9,7 km/h (2 Bft) 95,74 %
26.08.2023 16:34 23,2 C 22,8 C 18,3 C 62 % 1011,2 hPa 0,0 l/m 2 min 0 min 618 W/m 6,4 km/h (2 Bft) 100,00 %
26.08.2023 16:36 23,1 C 22,8 C 18,3 C 61 % 1011,2 hPa 0,0 l/m 2 min 0 min 622 W/m 6,4 km/h (2 Bft) 97,87 %
26.08.2023 16:38 23,1 C 22,8 C 18,3 C 62 % 1011,2 hPa 0,0 l/m 2 min 0 min 621 W/m 29,0 km/h (5 Bft) 97,87 %
26.08.2023 16:40 23,1 C 23,3 C 18,3 C 60 % 1011,1 hPa 0,0 l/m 2 min 0 min 623 W/m 12,9 km/h (3 Bft) 97,87 %
26.08.2023 16:42 23,2 C 23,3 C 18,3 C 59 % 1011,2 hPa 0,0 l/m 2 min 0 min 626 W/m 32,2 km/h (5 Bft) 95,74 %
26.08.2023 16:44 23,2 C 23,3 C 18,3 C 59 % 1011,1 hPa 0,0 l/m 2 min 0 min 626 W/m 29,0 km/h (5 Bft) 97,87 %
26.08.2023 16:46 23,1 C 23,9 C 18,3 C 58 % 1011,1 hPa 0,0 l/m 2 min 0 min 606 W/m 25,7 km/h (4 Bft) 97,83 %
26.08.2023 16:48 23,2 C 23,9 C 18,3 C 59 % 1011,1 hPa 0,0 l/m 2 min 0 min 601 W/m 16,1 km/h (3 Bft) 97,87 %
26.08.2023 16:50 23,2 C 23,3 C 18,3 C 60 % 1011,0 hPa 0,0 l/m 2 min 0 min 616 W/m 16,1 km/h (3 Bft) 97,87 %
26.08.2023 16:52 23,2 C 23,3 C 18,3 C 59 % 1011,1 hPa 0,0 l/m 2 min 0 min 606 W/m 22,5 km/h (4 Bft) 95,74 %
26.08.2023 16:54 23,2 C 23,3 C 18,3 C 59 % 1011,0 hPa 0,0 l/m 2 min 0 min 588 W/m 22,5 km/h (4 Bft) 97,87 %
26.08.2023 16:56 23,2 C 23,9 C 18,3 C 59 % 1011,0 hPa 0,0 l/m 2 min 0 min 572 W/m 16,1 km/h (3 Bft) 95,74 %
26.08.2023 16:58 23,3 C 23,3 C 18,3 C 57 % 1011,1 hPa 0,0 l/m 2 min 0 min 557 W/m 19,3 km/h (3 Bft) 97,87 %
26.08.2023 17:00 23,3 C 23,9 C 18,3 C 58 % 1011,0 hPa 0,0 l/m 2 min 0 min 548 W/m 16,1 km/h (3 Bft) 97,83 %
26.08.2023 17:02 23,3 C 23,9 C 18,3 C 57 % 1011,0 hPa 0,0 l/m 2 min 0 min 538 W/m 22,5 km/h (4 Bft) 97,87 %
26.08.2023 17:04 23,2 C 23,9 C 18,3 C 57 % 1011,1 hPa 0,0 l/m 2 min 0 min 530 W/m 22,5 km/h (4 Bft) 98,00 %
26.08.2023 17:06 23,1 C 24,4 C 18,3 C 57 % 1011,0 hPa 0,0 l/m 2 min 0 min 489 W/m 16,1 km/h (3 Bft) 96,61 %
26.08.2023 17:08 23,1 C 25,0 C 18,3 C 58 % 1011,1 hPa 0,0 l/m 2 min 0 min 541 W/m 22,5 km/h (4 Bft) 100,00 %
26.08.2023 17:10 23,1 C 25,6 C 18,3 C 59 % 1011,0 hPa 0,0 l/m 2 min 0 min 536 W/m 19,3 km/h (3 Bft) 95,74 %
26.08.2023 17:12 23,1 C 25,6 C 18,3 C 60 % 1011,0 hPa 0,0 l/m 2 min 0 min 538 W/m 6,4 km/h (2 Bft) 97,83 %
26.08.2023 17:14 23,2 C 25,0 C 18,3 C 59 % 1010,9 hPa 0,0 l/m 2 min 0 min 547 W/m 12,9 km/h (3 Bft) 97,87 %
26.08.2023 17:16 23,3 C 25,0 C 18,3 C 59 % 1010,9 hPa 0,0 l/m 2 min 0 min 279 W/m 6,4 km/h (2 Bft) 97,87 %
26.08.2023 17:18 23,3 C 25,0 C 18,3 C 59 % 1010,9 hPa 0,0 l/m 0 min 0 min 169 W/m 12,9 km/h (3 Bft) 97,87 %
26.08.2023 17:20 23,3 C 25,6 C 18,3 C 58 % 1010,8 hPa 0,0 l/m 2 min 0 min 506 W/m 22,5 km/h (4 Bft) 95,74 %
26.08.2023 17:22 23,2 C 25,6 C 18,3 C 58 % 1010,8 hPa 0,0 l/m 2 min 0 min 489 W/m 16,1 km/h (3 Bft) 97,87 %
26.08.2023 17:24 23,2 C 25,6 C 18,3 C 58 % 1010,8 hPa 0,0 l/m 2 min 0 min 477 W/m 19,3 km/h (3 Bft) 97,87 %
26.08.2023 17:26 23,2 C 26,1 C 18,3 C 58 % 1010,8 hPa 0,0 l/m 2 min 0 min 470 W/m 16,1 km/h (3 Bft) 97,83 %
26.08.2023 17:28 23,2 C 25,6 C 18,3 C 59 % 1010,7 hPa 0,0 l/m 2 min 0 min 460 W/m 12,9 km/h (3 Bft) 97,87 %
26.08.2023 17:30 23,2 C 26,1 C 18,9 C 60 % 1010,6 hPa 0,0 l/m 2 min 0 min 445 W/m 16,1 km/h (3 Bft) 100,00 %
26.08.2023 17:32 23,3 C 26,1 C 18,9 C 58 % 1010,7 hPa 0,0 l/m 2 min 0 min 394 W/m 12,9 km/h (3 Bft) 97,87 %
26.08.2023 17:34 23,3 C 26,1 C 18,3 C 58 % 1010,8 hPa 0,0 l/m 2 min 0 min 431 W/m 19,3 km/h (3 Bft) 97,87 %
26.08.2023 17:36 23,3 C 26,1 C 18,9 C 58 % 1010,7 hPa 0,0 l/m 2 min 0 min 426 W/m 12,9 km/h (3 Bft) 97,87 %
26.08.2023 17:38 23,3 C 26,7 C 18,9 C 58 % 1010,6 hPa 0,0 l/m 2 min 0 min 417 W/m 12,9 km/h (3 Bft) 97,83 %
26.08.2023 17:40 23,3 C 26,7 C 18,9 C 59 % 1010,7 hPa 0,0 l/m 2 min 0 min 412 W/m 12,9 km/h (3 Bft) 97,87 %
26.08.2023 17:42 23,4 C 26,7 C 18,9 C 59 % 1010,7 hPa 0,0 l/m 2 min 0 min 411 W/m 16,1 km/h (3 Bft) 93,62 %
26.08.2023 17:44 23,4 C 26,1 C 18,9 C 58 % 1010,7 hPa 0,0 l/m 2 min 0 min 406 W/m 16,1 km/h (3 Bft) 95,74 %
26.08.2023 17:46 23,4 C 26,1 C 18,9 C 58 % 1010,6 hPa 0,0 l/m 2 min 0 min 401 W/m 6,4 km/h (2 Bft) 93,62 %
26.08.2023 17:48 23,4 C 26,7 C 18,9 C 59 % 1010,7 hPa 0,0 l/m 2 min 0 min 400 W/m 12,9 km/h (3 Bft) 93,62 %
26.08.2023 17:50 23,4 C 26,7 C 18,9 C 59 % 1010,6 hPa 0,0 l/m 2 min 0 min 394 W/m 22,5 km/h (4 Bft) 95,74 %
26.08.2023 17:52 23,4 C 26,7 C 18,9 C 58 % 1010,6 hPa 0,0 l/m 2 min 0 min 389 W/m 16,1 km/h (3 Bft) 95,65 %
26.08.2023 17:54 23,4 C 26,7 C 18,9 C 59 % 1010,6 hPa 0,0 l/m 2 min 0 min 381 W/m 9,7 km/h (2 Bft) 95,74 %
26.08.2023 17:56 23,4 C 26,7 C 18,9 C 60 % 1010,5 hPa 0,0 l/m 2 min 0 min 372 W/m 9,7 km/h (2 Bft) 93,62 %
26.08.2023 17:58 23,4 C 26,7 C 18,9 C 59 % 1010,6 hPa 0,0 l/m 2 min 0 min 365 W/m 9,7 km/h (2 Bft) 93,62 %
26.08.2023 18:00 23,4 C 26,7 C 19,4 C 60 % 1010,6 hPa 0,0 l/m 2 min 0 min 369 W/m 9,7 km/h (2 Bft) 95,74 %
26.08.2023 18:02 23,4 C 25,6 C 18,9 C 59 % 1010,6 hPa 0,0 l/m 2 min 0 min 357 W/m 16,1 km/h (3 Bft) 95,74 %
26.08.2023 18:04 23,3 C 25,0 C 18,9 C 59 % 1010,6 hPa 0,0 l/m 2 min 0 min 355 W/m 12,9 km/h (3 Bft) 94,00 %
26.08.2023 18:08 23,3 C 25,6 C 18,9 C 59 % 1010,5 hPa 0,0 l/m 4 min 0 min 356 W/m 16,1 km/h (3 Bft) 96,34 %
26.08.2023 18:10 23,3 C 26,1 C 18,9 C 61 % 1010,5 hPa 0,0 l/m 2 min 0 min 358 W/m 12,9 km/h (3 Bft) 93,62 %
26.08.2023 18:12 23,3 C 25,6 C 18,9 C 59 % 1010,6 hPa 0,0 l/m 2 min 0 min 346 W/m 12,9 km/h (3 Bft) 95,74 %
26.08.2023 18:14 23,2 C 25,0 C 18,9 C 59 % 1010,5 hPa 0,0 l/m 2 min 0 min 324 W/m 16,1 km/h (3 Bft) 98,11 %
26.08.2023 18:16 23,2 C 25,0 C 18,9 C 60 % 1010,5 hPa 0,0 l/m 2 min 0 min 307 W/m 12,9 km/h (3 Bft) 97,87 %
26.08.2023 18:18 23,2 C 25,6 C 18,9 C 60 % 1010,5 hPa 0,0 l/m 2 min 0 min 294 W/m 9,7 km/h (2 Bft) 100,00 %
26.08.2023 18:20 23,1 C 25,0 C 18,9 C 59 % 1010,6 hPa 0,0 l/m 2 min 0 min 282 W/m 22,5 km/h (4 Bft) 100,00 %
26.08.2023 18:22 23,0 C 24,4 C 18,9 C 59 % 1010,5 hPa 0,0 l/m 2 min 0 min 258 W/m 12,9 km/h (3 Bft) 100,00 %
26.08.2023 18:24 22,9 C 25,0 C 18,3 C 59 % 1010,5 hPa 0,0 l/m 2 min 0 min 261 W/m 12,9 km/h (3 Bft) 100,00 %
26.08.2023 18:26 22,9 C 24,4 C 18,3 C 59 % 1010,5 hPa 0,0 l/m 2 min 0 min 258 W/m 19,3 km/h (3 Bft) 100,00 %
26.08.2023 18:28 22,8 C 25,0 C 18,3 C 59 % 1010,5 hPa 0,0 l/m 2 min 0 min 253 W/m 12,9 km/h (3 Bft) 100,00 %
26.08.2023 18:30 22,8 C 25,0 C 18,3 C 60 % 1010,4 hPa 0,0 l/m 2 min 0 min 250 W/m 6,4 km/h (2 Bft) 100,00 %
26.08.2023 18:32 22,8 C 25,6 C 18,3 C 60 % 1010,4 hPa 0,0 l/m 2 min 0 min 246 W/m 12,9 km/h (3 Bft) 100,00 %
26.08.2023 18:34 22,8 C 25,0 C 18,3 C 60 % 1010,5 hPa 0,0 l/m 2 min 0 min 241 W/m 6,4 km/h (2 Bft) 100,00 %
26.08.2023 18:36 22,7 C 25,0 C 18,3 C 59 % 1010,4 hPa 0,0 l/m 2 min 0 min 237 W/m 12,9 km/h (3 Bft) 100,00 %
26.08.2023 18:38 22,7 C 24,4 C 18,3 C 58 % 1010,4 hPa 0,0 l/m 2 min 0 min 236 W/m 9,7 km/h (2 Bft) 97,87 %
26.08.2023 18:40 22,7 C 24,4 C 18,3 C 59 % 1010,4 hPa 0,0 l/m 2 min 0 min 233 W/m 9,7 km/h (2 Bft) 100,00 %
26.08.2023 18:42 22,8 C 23,9 C 18,9 C 60 % 1010,3 hPa 0,0 l/m 2 min 0 min 228 W/m 9,7 km/h (2 Bft) 100,00 %
26.08.2023 18:44 22,8 C 23,3 C 18,9 C 60 % 1010,4 hPa 0,0 l/m 2 min 0 min 219 W/m 9,7 km/h (2 Bft) 97,83 %
26.08.2023 18:46 22,8 C 22,8 C 18,9 C 59 % 1010,3 hPa 0,0 l/m 2 min 0 min 147 W/m 9,7 km/h (2 Bft) 100,00 %
26.08.2023 18:48 22,9 C 22,8 C 18,9 C 59 % 1010,3 hPa 0,0 l/m 0 min 0 min 96 W/m 9,7 km/h (2 Bft) 100,00 %
26.08.2023 18:50 22,9 C 22,8 C 18,3 C 59 % 1010,4 hPa 0,0 l/m 0 min 0 min 91 W/m 16,1 km/h (3 Bft) 100,00 %
26.08.2023 18:52 22,9 C 22,8 C 18,3 C 59 % 1010,4 hPa 0,0 l/m 0 min 0 min 89 W/m 6,4 km/h (2 Bft) 100,00 %
26.08.2023 18:54 22,9 C 22,2 C 18,3 C 59 % 1010,3 hPa 0,0 l/m 0 min 0 min 86 W/m 16,1 km/h (3 Bft) 100,00 %
26.08.2023 18:56 22,9 C 22,2 C 18,3 C 59 % 1010,3 hPa 0,0 l/m 0 min 0 min 84 W/m 9,7 km/h (2 Bft) 97,83 %
26.08.2023 18:58 22,9 C 22,8 C 18,3 C 60 % 1010,3 hPa 0,0 l/m 0 min 0 min 86 W/m 3,2 km/h (1 Bft) 100,00 %
26.08.2023 19:00 22,9 C 22,8 C 18,3 C 60 % 1010,3 hPa 0,0 l/m 0 min 0 min 94 W/m 6,4 km/h (2 Bft) 100,00 %
26.08.2023 19:02 22,9 C 22,8 C 18,3 C 60 % 1010,4 hPa 0,0 l/m 0 min 0 min 101 W/m 9,7 km/h (2 Bft) 100,00 %
26.08.2023 19:04 22,8 C 22,8 C 18,3 C 61 % 1010,4 hPa 0,0 l/m 0 min 0 min 104 W/m 3,2 km/h (1 Bft) 100,00 %
26.08.2023 19:06 22,8 C 22,2 C 18,3 C 60 % 1010,4 hPa 0,0 l/m 0 min 0 min 103 W/m 12,9 km/h (3 Bft) 100,00 %
26.08.2023 19:08 22,8 C 22,2 C 18,3 C 60 % 1010,4 hPa 0,0 l/m 0 min 0 min 94 W/m 12,9 km/h (3 Bft) 100,00 %
26.08.2023 19:10 22,7 C 22,2 C 18,3 C 61 % 1010,4 hPa 0,0 l/m 0 min 0 min 86 W/m 12,9 km/h (3 Bft) 100,00 %
26.08.2023 19:12 22,7 C 22,2 C 17,8 C 60 % 1010,4 hPa 0,0 l/m 0 min 0 min 83 W/m 12,9 km/h (3 Bft) 97,87 %
26.08.2023 19:14 22,6 C 22,2 C 17,8 C 61 % 1010,4 hPa 0,0 l/m 0 min 0 min 83 W/m 12,9 km/h (3 Bft) 100,00 %
26.08.2023 19:16 22,6 C 22,2 C 17,8 C 61 % 1010,3 hPa 0,0 l/m 0 min 0 min 80 W/m 12,9 km/h (3 Bft) 97,87 %
26.08.2023 19:18 22,5 C 21,7 C 17,8 C 61 % 1010,5 hPa 0,0 l/m 0 min 0 min 76 W/m 12,9 km/h (3 Bft) 100,00 %
26.08.2023 19:20 22,4 C 21,7 C 17,8 C 62 % 1010,5 hPa 0,0 l/m 0 min 0 min 70 W/m 6,4 km/h (2 Bft) 100,00 %
26.08.2023 19:22 22,4 C 21,7 C 17,8 C 62 % 1010,5 hPa 0,0 l/m 0 min 0 min 65 W/m 9,7 km/h (2 Bft) 100,00 %
26.08.2023 19:24 22,3 C 21,7 C 17,8 C 62 % 1010,5 hPa 0,0 l/m 0 min 0 min 60 W/m 12,9 km/h (3 Bft) 100,00 %
26.08.2023 19:26 22,3 C 21,7 C 17,8 C 62 % 1010,5 hPa 0,0 l/m 0 min 0 min 57 W/m 9,7 km/h (2 Bft) 97,87 %
26.08.2023 19:28 22,3 C 21,7 C 17,8 C 63 % 1010,5 hPa 0,0 l/m 0 min 0 min 56 W/m 3,2 km/h (1 Bft) 100,00 %
26.08.2023 19:30 22,3 C 21,7 C 17,2 C 63 % 1010,6 hPa 0,0 l/m 0 min 0 min 54 W/m 9,7 km/h (2 Bft) 100,00 %
26.08.2023 19:32 22,3 C 21,7 C 17,2 C 63 % 1010,6 hPa 0,0 l/m 0 min 0 min 51 W/m 6,4 km/h (2 Bft) 100,00 %
26.08.2023 19:34 22,2 C 21,1 C 17,2 C 63 % 1010,6 hPa 0,0 l/m 0 min 0 min 47 W/m 6,4 km/h (2 Bft) 100,00 %
26.08.2023 19:36 22,1 C 21,1 C 17,2 C 63 % 1010,6 hPa 0,0 l/m 0 min 0 min 47 W/m 16,1 km/h (3 Bft) 97,87 %
26.08.2023 19:38 22,1 C 21,1 C 17,2 C 64 % 1010,7 hPa 0,0 l/m 0 min 0 min 47 W/m 9,7 km/h (2 Bft) 100,00 %
26.08.2023 19:40 22,0 C 21,1 C 17,2 C 64 % 1010,7 hPa 0,0 l/m 0 min 0 min 44 W/m 9,7 km/h (2 Bft) 97,87 %
26.08.2023 19:42 21,9 C 21,1 C 17,2 C 64 % 1010,7 hPa 0,0 l/m 0 min 0 min 41 W/m 3,2 km/h (1 Bft) 100,00 %
26.08.2023 19:44 21,9 C 21,1 C 17,2 C 64 % 1010,7 hPa 0,0 l/m 0 min 0 min 37 W/m 6,4 km/h (2 Bft) 97,87 %
26.08.2023 19:46 21,9 C 21,1 C 17,2 C 65 % 1010,7 hPa 0,0 l/m 0 min 0 min 34 W/m 3,2 km/h (1 Bft) 95,74 %
26.08.2023 19:48 21,8 C 20,6 C 16,7 C 65 % 1010,7 hPa 0,0 l/m 0 min 0 min 32 W/m 12,9 km/h (3 Bft) 95,65 %
26.08.2023 19:50 21,7 C 20,6 C 16,7 C 65 % 1010,7 hPa 0,0 l/m 0 min 0 min 30 W/m 6,4 km/h (2 Bft) 95,74 %
26.08.2023 19:52 21,6 C 20,6 C 16,7 C 65 % 1010,7 hPa 0,0 l/m 0 min 0 min 29 W/m 6,4 km/h (2 Bft) 95,74 %
26.08.2023 19:54 21,6 C 20,6 C 16,7 C 65 % 1010,7 hPa 0,0 l/m 0 min 0 min 27 W/m 3,2 km/h (1 Bft) 93,62 %
26.08.2023 19:56 21,6 C 20,6 C 16,7 C 65 % 1010,8 hPa 0,0 l/m 0 min 0 min 26 W/m 3,2 km/h (1 Bft) 95,74 %
26.08.2023 19:58 21,5 C 20,6 C 16,7 C 66 % 1010,8 hPa 0,0 l/m 0 min 0 min 25 W/m 3,2 km/h (1 Bft) 95,74 %
26.08.2023 20:00 21,4 C 20,0 C 16,7 C 66 % 1010,9 hPa 0,0 l/m 0 min 0 min 23 W/m 3,2 km/h (1 Bft) 95,65 %
26.08.2023 20:02 21,4 C 20,0 C 16,1 C 67 % 1010,9 hPa 0,0 l/m 0 min 0 min 21 W/m 3,2 km/h (1 Bft) 95,74 %
26.08.2023 20:04 21,4 C 20,0 C 16,1 C 67 % 1010,9 hPa 0,0 l/m 0 min 0 min 21 W/m 3,2 km/h (1 Bft) 93,18 %
26.08.2023 20:06 21,3 C 20,0 C 16,1 C 67 % 1010,9 hPa 0,0 l/m 0 min 0 min 19 W/m 3,2 km/h (1 Bft) 91,53 %
26.08.2023 20:08 21,3 C 20,0 C 16,1 C 67 % 1010,9 hPa 0,0 l/m 0 min 0 min 18 W/m 3,2 km/h (1 Bft) 91,43 %
26.08.2023 20:10 21,2 C 20,0 C 16,1 C 67 % 1010,9 hPa 0,0 l/m 0 min 0 min 18 W/m 3,2 km/h (1 Bft) 93,62 %
26.08.2023 20:12 21,2 C 19,4 C 16,1 C 68 % 1010,9 hPa 0,0 l/m 0 min 0 min 17 W/m 0,0 km/h (0 Bft) 93,62 %
26.08.2023 20:14 21,1 C 19,4 C 15,6 C 68 % 1010,9 hPa 0,0 l/m 0 min 0 min 14 W/m 6,4 km/h (2 Bft) 93,48 %
26.08.2023 20:16 21,1 C 19,4 C 15,6 C 68 % 1011,0 hPa 0,0 l/m 0 min 0 min 13 W/m 3,2 km/h (1 Bft) 93,62 %
26.08.2023 20:18 20,9 C 19,4 C 15,6 C 68 % 1011,0 hPa 0,0 l/m 0 min 0 min 12 W/m 3,2 km/h (1 Bft) 95,74 %
26.08.2023 20:20 20,8 C 19,4 C 15,6 C 68 % 1011,1 hPa 0,0 l/m 0 min 0 min 11 W/m 3,2 km/h (1 Bft) 97,87 %
26.08.2023 20:22 20,8 C 19,4 C 15,6 C 68 % 1011,1 hPa 0,0 l/m 0 min 0 min 10 W/m 3,2 km/h (1 Bft) 95,74 %
26.08.2023 20:24 20,8 C 19,4 C 15,6 C 69 % 1011,1 hPa 0,0 l/m 0 min 0 min 8 W/m 0,0 km/h (0 Bft) 93,62 %
26.08.2023 20:26 20,7 C 19,4 C 15,6 C 69 % 1011,2 hPa 0,0 l/m 0 min 0 min 6 W/m 3,2 km/h (1 Bft) 93,62 %
26.08.2023 20:28 20,7 C 19,4 C 15,6 C 69 % 1011,2 hPa 0,0 l/m 0 min 0 min 5 W/m 3,2 km/h (1 Bft) 93,48 %
26.08.2023 20:30 20,7 C 19,4 C 15,6 C 70 % 1011,2 hPa 0,0 l/m 0 min 0 min 1 W/m 0,0 km/h (0 Bft) 95,74 %
26.08.2023 20:32 20,7 C 19,4 C 15,6 C 71 % 1011,2 hPa 0,0 l/m 0 min 0 min 0 W/m 3,2 km/h (1 Bft) 97,87 %
26.08.2023 20:34 20,6 C 19,4 C 15,6 C 71 % 1011,2 hPa 0,0 l/m 0 min 0 min 0 W/m 3,2 km/h (1 Bft) 97,87 %
26.08.2023 20:36 20,6 C 19,4 C 15,0 C 70 % 1011,2 hPa 0,0 l/m 0 min 0 min 0 W/m 3,2 km/h (1 Bft) 97,87 %
26.08.2023 20:38 20,5 C 19,4 C 15,0 C 70 % 1011,3 hPa 0,0 l/m 0 min 0 min 0 W/m 0,0 km/h (0 Bft) 97,87 %
26.08.2023 20:40 20,5 C 18,9 C 15,0 C 71 % 1011,3 hPa 0,0 l/m 0 min 0 min 0 W/m 0,0 km/h (0 Bft) 97,83 %
26.08.2023 20:42 20,4 C 18,9 C 15,0 C 71 % 1011,3 hPa 0,0 l/m 0 min 0 min 0 W/m 0,0 km/h (0 Bft) 95,74 %
26.08.2023 20:44 20,4 C 18,9 C 15,0 C 71 % 1011,3 hPa 0,0 l/m 0 min 0 min 0 W/m 0,0 km/h (0 Bft) 97,87 %
26.08.2023 20:46 20,3 C 18,9 C 15,0 C 71 % 1011,4 hPa 0,0 l/m 0 min 0 min 0 W/m 0,0 km/h (0 Bft) 97,87 %
26.08.2023 20:48 20,3 C 18,9 C 15,0 C 71 % 1011,3 hPa 0,0 l/m 0 min 0 min 0 W/m 0,0 km/h (0 Bft) 97,87 %
26.08.2023 20:50 20,3 C 18,9 C 15,0 C 71 % 1011,4 hPa 0,0 l/m 0 min 0 min 0 W/m 0,0 km/h (0 Bft) 97,87 %
26.08.2023 20:52 20,2 C 18,9 C 15,0 C 72 % 1011,4 hPa 0,0 l/m 0 min 0 min 0 W/m 0,0 km/h (0 Bft) 97,83 %
26.08.2023 20:54 20,2 C 18,9 C 15,0 C 72 % 1011,4 hPa 0,0 l/m 0 min 0 min 0 W/m 0,0 km/h (0 Bft) 97,87 %
26.08.2023 20:56 20,2 C 18,9 C 15,0 C 71 % 1011,4 hPa 0,0 l/m 0 min 0 min 0 W/m 0,0 km/h (0 Bft) 100,00 %
26.08.2023 20:58 20,2 C 18,9 C 15,0 C 71 % 1011,4 hPa 0,0 l/m 0 min 0 min 0 W/m 0,0 km/h (0 Bft) 97,87 %
26.08.2023 21:00 20,1 C 18,9 C 15,0 C 72 % 1011,4 hPa 0,0 l/m 0 min 0 min 0 W/m 0,0 km/h (0 Bft) 100,00 %
26.08.2023 21:02 20,1 C 18,9 C 15,0 C 72 % 1011,4 hPa 0,0 l/m 0 min 0 min 0 W/m 0,0 km/h (0 Bft) 100,00 %
26.08.2023 21:04 20,1 C 18,9 C 15,0 C 72 % 1011,4 hPa 0,0 l/m 0 min 0 min 0 W/m 6,4 km/h (2 Bft) 98,00 %
26.08.2023 21:06 20,1 C 18,9 C 15,0 C 73 % 1011,5 hPa 0,0 l/m 0 min 0 min 0 W/m 3,2 km/h (1 Bft) 97,83 %
26.08.2023 21:08 20,0 C 18,3 C 14,4 C 73 % 1011,5 hPa 0,0 l/m 0 min 0 min 0 W/m 6,4 km/h (2 Bft) 100,00 %
26.08.2023 21:10 19,9 C 18,3 C 14,4 C 73 % 1011,4 hPa 0,0 l/m 0 min 0 min 0 W/m 3,2 km/h (1 Bft) 97,87 %
26.08.2023 21:12 19,9 C 18,3 C 14,4 C 73 % 1011,5 hPa 0,0 l/m 0 min 0 min 0 W/m 0,0 km/h (0 Bft) 100,00 %
26.08.2023 21:14 19,8 C 18,3 C 14,4 C 73 % 1011,5 hPa 0,0 l/m 0 min 0 min 0 W/m 0,0 km/h (0 Bft) 100,00 %
26.08.2023 21:16 19,8 C 18,3 C 14,4 C 73 % 1011,5 hPa 0,0 l/m 0 min 0 min 0 W/m 3,2 km/h (1 Bft) 100,00 %
26.08.2023 21:18 19,7 C 17,8 C 14,4 C 74 % 1011,5 hPa 0,0 l/m 0 min 0 min 0 W/m 3,2 km/h (1 Bft) 100,00 %
26.08.2023 21:20 19,7 C 17,8 C 13,9 C 74 % 1011,6 hPa 0,0 l/m 0 min 0 min 0 W/m 3,2 km/h (1 Bft) 100,00 %
26.08.2023 21:22 19,6 C 17,8 C 13,9 C 74 % 1011,6 hPa 0,0 l/m 0 min 0 min 0 W/m 3,2 km/h (1 Bft) 97,87 %
26.08.2023 21:24 19,6 C 17,8 C 13,9 C 75 % 1011,6 hPa 0,0 l/m 0 min 0 min 0 W/m 0,0 km/h (0 Bft) 100,00 %
26.08.2023 21:26 19,5 C 17,8 C 13,9 C 75 % 1011,6 hPa 0,0 l/m 0 min 0 min 0 W/m 0,0 km/h (0 Bft) 100,00 %
26.08.2023 21:28 19,5 C 17,8 C 13,9 C 75 % 1011,6 hPa 0,0 l/m 0 min 0 min 0 W/m 3,2 km/h (1 Bft) 100,00 %
26.08.2023 21:30 19,4 C 17,8 C 13,9 C 76 % 1011,6 hPa 0,0 l/m 0 min 0 min 0 W/m 3,2 km/h (1 Bft) 97,83 %
26.08.2023 21:32 19,3 C 17,8 C 13,9 C 76 % 1011,6 hPa 0,0 l/m 0 min 0 min 0 W/m 3,2 km/h (1 Bft) 100,00 %
26.08.2023 21:34 19,3 C 17,8 C 13,9 C 76 % 1011,6 hPa 0,0 l/m 0 min 0 min 0 W/m 3,2 km/h (1 Bft) 100,00 %
26.08.2023 21:36 19,2 C 17,2 C 13,9 C 77 % 1011,6 hPa 0,0 l/m 0 min 0 min 0 W/m 3,2 km/h (1 Bft) 97,87 %
26.08.2023 21:38 19,1 C 17,2 C 13,3 C 77 % 1011,6 hPa 0,0 l/m 0 min 0 min 0 W/m 0,0 km/h (0 Bft) 97,87 %
26.08.2023 21:40 19,1 C 17,2 C 13,3 C 78 % 1011,6 hPa 0,0 l/m 0 min 0 min 0 W/m 0,0 km/h (0 Bft) 97,87 %
26.08.2023 21:42 19,0 C 17,2 C 13,3 C 78 % 1011,6 hPa 0,0 l/m 0 min 0 min 0 W/m 0,0 km/h (0 Bft) 97,83 %
26.08.2023 21:44 19,0 C 17,2 C 13,3 C 79 % 1011,5 hPa 0,0 l/m 0 min 0 min 0 W/m 0,0 km/h (0 Bft) 97,87 %
26.08.2023 21:46 18,9 C 16,7 C 13,3 C 79 % 1011,6 hPa 0,0 l/m 0 min 0 min 0 W/m 6,4 km/h (2 Bft) 97,87 %
26.08.2023 21:48 18,8 C 16,7 C 13,3 C 79 % 1011,6 hPa 0,0 l/m 0 min 0 min 0 W/m 3,2 km/h (1 Bft) 95,74 %
26.08.2023 21:50 18,8 C 16,7 C 13,3 C 78 % 1011,6 hPa 0,0 l/m 0 min 0 min 0 W/m 6,4 km/h (2 Bft) 97,87 %
26.08.2023 21:52 18,7 C 16,7 C 13,3 C 78 % 1011,6 hPa 0,0 l/m 0 min 0 min 0 W/m 3,2 km/h (1 Bft) 97,87 %
26.08.2023 21:54 18,6 C 16,7 C 13,3 C 79 % 1011,6 hPa 0,0 l/m 0 min 0 min 0 W/m 0,0 km/h (0 Bft) 95,74 %
26.08.2023 21:56 18,6 C 16,7 C 13,3 C 79 % 1011,5 hPa 0,0 l/m 0 min 0 min 0 W/m 0,0 km/h (0 Bft) 95,65 %
26.08.2023 21:58 18,5 C 16,7 C 13,3 C 79 % 1011,5 hPa 0,0 l/m 0 min 0 min 0 W/m 0,0 km/h (0 Bft) 97,87 %
26.08.2023 22:00 18,4 C 16,7 C 13,3 C 80 % 1011,5 hPa 0,0 l/m 0 min 0 min 0 W/m 0,0 km/h (0 Bft) 95,74 %
26.08.2023 22:02 18,4 C 16,7 C 13,3 C 80 % 1011,5 hPa 0,0 l/m 0 min 0 min 0 W/m 0,0 km/h (0 Bft) 97,87 %
26.08.2023 22:04 18,3 C 16,7 C 13,3 C 80 % 1011,5 hPa 0,0 l/m 0 min 0 min 0 W/m 0,0 km/h (0 Bft) 97,96 %
26.08.2023 22:06 18,3 C 16,7 C 12,8 C 81 % 1011,5 hPa 0,0 l/m 0 min 0 min 0 W/m 0,0 km/h (0 Bft) 100,00 %
26.08.2023 22:08 18,2 C 16,7 C 13,3 C 81 % 1011,5 hPa 0,0 l/m 0 min 0 min 0 W/m 0,0 km/h (0 Bft) 100,00 %
26.08.2023 22:10 18,2 C 16,7 C 12,8 C 81 % 1011,5 hPa 0,0 l/m 0 min 0 min 0 W/m 0,0 km/h (0 Bft) 100,00 %
26.08.2023 22:12 18,2 C 16,7 C 12,8 C 82 % 1011,4 hPa 0,0 l/m 0 min 0 min 0 W/m 0,0 km/h (0 Bft) 95,65 %
26.08.2023 22:14 18,2 C 16,7 C 12,8 C 82 % 1011,4 hPa 0,0 l/m 0 min 0 min 0 W/m 0,0 km/h (0 Bft) 95,74 %
26.08.2023 22:16 18,2 C 16,7 C 12,8 C 82 % 1011,5 hPa 0,0 l/m 0 min 0 min 0 W/m 0,0 km/h (0 Bft) 100,00 %
26.08.2023 22:18 18,1 C 16,7 C 12,8 C 82 % 1011,4 hPa 0,0 l/m 0 min 0 min 0 W/m 0,0 km/h (0 Bft) 100,00 %
26.08.2023 22:20 18,1 C 16,7 C 12,8 C 83 % 1011,4 hPa 0,0 l/m 0 min 0 min 0 W/m 0,0 km/h (0 Bft) 100,00 %
26.08.2023 22:22 18,1 C 16,7 C 12,8 C 83 % 1011,4 hPa 0,0 l/m 0 min 0 min 0 W/m 0,0 km/h (0 Bft) 97,87 %
26.08.2023 22:24 18,0 C 16,1 C 12,8 C 83 % 1011,4 hPa 0,0 l/m 0 min 0 min 0 W/m 3,2 km/h (1 Bft) 97,83 %
26.08.2023 22:26 17,9 C 16,1 C 12,8 C 83 % 1011,4 hPa 0,0 l/m 0 min 0 min 0 W/m 0,0 km/h (0 Bft) 97,87 %
26.08.2023 22:28 17,8 C 16,1 C 12,8 C 83 % 1011,3 hPa 0,0 l/m 0 min 0 min 0 W/m 0,0 km/h (0 Bft) 95,74 %
26.08.2023 22:30 17,8 C 16,1 C 12,8 C 83 % 1011,4 hPa 0,0 l/m 0 min 0 min 0 W/m 0,0 km/h (0 Bft) 97,87 %
26.08.2023 22:32 17,8 C 16,1 C 12,8 C 83 % 1011,3 hPa 0,0 l/m 0 min 0 min 0 W/m 0,0 km/h (0 Bft) 97,87 %
26.08.2023 22:34 17,7 C 16,1 C 12,8 C 83 % 1011,3 hPa 0,0 l/m 0 min 0 min 0 W/m 0,0 km/h (0 Bft) 97,87 %
26.08.2023 22:36 17,7 C 16,1 C 12,8 C 83 % 1011,3 hPa 0,0 l/m 0 min 0 min 0 W/m 0,0 km/h (0 Bft) 95,74 %
26.08.2023 22:38 17,7 C 16,1 C 12,2 C 83 % 1011,3 hPa 0,0 l/m 0 min 0 min 0 W/m 0,0 km/h (0 Bft) 97,83 %
26.08.2023 22:40 17,6 C 16,1 C 12,2 C 84 % 1011,3 hPa 0,0 l/m 0 min 0 min 0 W/m 0,0 km/h (0 Bft) 97,87 %
26.08.2023 22:42 17,6 C 15,6 C 12,2 C 84 % 1011,3 hPa 0,0 l/m 0 min 0 min 0 W/m 0,0 km/h (0 Bft) 96,23 %
26.08.2023 22:44 17,5 C 15,6 C 12,2 C 84 % 1011,3 hPa 0,0 l/m 0 min 0 min 0 W/m 0,0 km/h (0 Bft) 97,87 %
26.08.2023 22:46 17,4 C 15,6 C 12,2 C 84 % 1011,3 hPa 0,0 l/m 0 min 0 min 0 W/m 0,0 km/h (0 Bft) 95,74 %
26.08.2023 22:48 17,4 C 15,6 C 12,2 C 84 % 1011,3 hPa 0,0 l/m 0 min 0 min 0 W/m 0,0 km/h (0 Bft) 97,87 %
26.08.2023 22:50 17,3 C 15,6 C 12,2 C 84 % 1011,2 hPa 0,0 l/m 0 min 0 min 0 W/m 0,0 km/h (0 Bft) 95,65 %
26.08.2023 22:52 17,3 C 15,6 C 12,2 C 84 % 1011,2 hPa 0,0 l/m 0 min 0 min 0 W/m 0,0 km/h (0 Bft) 97,87 %
26.08.2023 22:54 17,2 C 15,6 C 12,2 C 85 % 1011,3 hPa 0,0 l/m 0 min 0 min 0 W/m 0,0 km/h (0 Bft) 97,87 %
26.08.2023 22:56 17,2 C 15,6 C 12,2 C 85 % 1011,2 hPa 0,0 l/m 0 min 0 min 0 W/m 0,0 km/h (0 Bft) 95,74 %
26.08.2023 22:58 17,1 C 15,6 C 12,2 C 85 % 1011,2 hPa 0,0 l/m 0 min 0 min 0 W/m 0,0 km/h (0 Bft) 97,87 %
26.08.2023 23:00 17,1 C 15,6 C 12,2 C 85 % 1011,2 hPa 0,0 l/m 0 min 0 min 0 W/m 0,0 km/h (0 Bft) 97,87 %
26.08.2023 23:02 17,0 C 15,6 C 12,2 C 85 % 1011,2 hPa 0,0 l/m 0 min 0 min 0 W/m 0,0 km/h (0 Bft) 100,00 %
26.08.2023 23:04 17,0 C 15,6 C 12,2 C 85 % 1011,2 hPa 0,0 l/m 0 min 0 min 0 W/m 0,0 km/h (0 Bft) 100,00 %
26.08.2023 23:06 16,9 C 15,6 C 12,2 C 86 % 1011,3 hPa 0,0 l/m 0 min 0 min 0 W/m 0,0 km/h (0 Bft) 100,00 %
26.08.2023 23:08 16,9 C 15,6 C 12,2 C 86 % 1011,3 hPa 0,0 l/m 0 min 0 min 0 W/m 0,0 km/h (0 Bft) 100,00 %
26.08.2023 23:10 16,9 C 15,6 C 12,2 C 86 % 1011,3 hPa 0,0 l/m 0 min 0 min 0 W/m 0,0 km/h (0 Bft) 100,00 %
26.08.2023 23:12 16,9 C 15,6 C 12,2 C 86 % 1011,3 hPa 0,0 l/m 0 min 0 min 0 W/m 0,0 km/h (0 Bft) 97,87 %
26.08.2023 23:14 16,9 C 15,6 C 12,2 C 87 % 1011,3 hPa 0,0 l/m 0 min 0 min 0 W/m 0,0 km/h (0 Bft) 97,87 %
26.08.2023 23:16 16,9 C 15,6 C 12,2 C 87 % 1011,3 hPa 0,0 l/m 0 min 0 min 0 W/m 0,0 km/h (0 Bft) 97,83 %
26.08.2023 23:18 16,8 C 15,6 C 12,2 C 87 % 1011,3 hPa 0,0 l/m 0 min 0 min 0 W/m 0,0 km/h (0 Bft) 95,74 %
26.08.2023 23:20 16,8 C 15,6 C 12,2 C 87 % 1011,3 hPa 0,0 l/m 0 min 0 min 0 W/m 0,0 km/h (0 Bft) 93,62 %
26.08.2023 23:22 16,8 C 15,6 C 12,2 C 87 % 1011,3 hPa 0,0 l/m 0 min 0 min 0 W/m 0,0 km/h (0 Bft) 95,74 %
26.08.2023 23:24 16,8 C 15,6 C 12,2 C 87 % 1011,3 hPa 0,0 l/m 0 min 0 min 0 W/m 6,4 km/h (2 Bft) 95,74 %
26.08.2023 23:26 16,8 C 16,1 C 12,2 C 88 % 1011,4 hPa 0,0 l/m 0 min 0 min 0 W/m 6,4 km/h (2 Bft) 93,62 %
26.08.2023 23:28 16,8 C 16,1 C 12,2 C 88 % 1011,4 hPa 0,0 l/m 0 min 0 min 0 W/m 0,0 km/h (0 Bft) 95,74 %
26.08.2023 23:30 16,8 C 16,1 C 12,2 C 88 % 1011,4 hPa 0,0 l/m 0 min 0 min 0 W/m 0,0 km/h (0 Bft) 95,65 %
26.08.2023 23:32 16,8 C 16,1 C 12,2 C 88 % 1011,5 hPa 0,0 l/m 0 min 0 min 0 W/m 3,2 km/h (1 Bft) 93,62 %
26.08.2023 23:34 16,8 C 16,1 C 12,2 C 89 % 1011,5 hPa 0,0 l/m 0 min 0 min 0 W/m 0,0 km/h (0 Bft) 93,62 %
26.08.2023 23:36 16,8 C 16,1 C 12,2 C 89 % 1011,5 hPa 0,0 l/m 0 min 2 min 0 W/m 3,2 km/h (1 Bft) 95,74 %
26.08.2023 23:38 16,8 C 16,1 C 12,2 C 89 % 1011,5 hPa 0,0 l/m 0 min 2 min 0 W/m 6,4 km/h (2 Bft) 95,74 %
26.08.2023 23:40 16,8 C 16,1 C 12,2 C 89 % 1011,5 hPa 0,0 l/m 0 min 2 min 0 W/m 3,2 km/h (1 Bft) 95,74 %
26.08.2023 23:42 16,9 C 16,1 C 12,2 C 90 % 1011,4 hPa 0,2 l/m 0 min 2 min 0 W/m 3,2 km/h (1 Bft) 95,65 %
26.08.2023 23:44 16,9 C 16,1 C 11,7 C 90 % 1011,4 hPa 0,0 l/m 0 min 2 min 0 W/m 0,0 km/h (0 Bft) 95,74 %
26.08.2023 23:46 16,9 C 16,1 C 11,7 C 90 % 1011,3 hPa 0,0 l/m 0 min 2 min 0 W/m 0,0 km/h (0 Bft) 95,74 %
26.08.2023 23:48 16,9 C 15,6 C 11,7 C 90 % 1011,3 hPa 0,0 l/m 0 min 0 min 0 W/m 0,0 km/h (0 Bft) 97,87 %
26.08.2023 23:50 16,9 C 15,6 C 11,7 C 91 % 1011,3 hPa 0,0 l/m 0 min 0 min 0 W/m 0,0 km/h (0 Bft) 95,74 %
26.08.2023 23:52 17,0 C 15,6 C 11,7 C 91 % 1011,3 hPa 0,0 l/m 0 min 0 min 0 W/m 0,0 km/h (0 Bft) 95,74 %
26.08.2023 23:54 17,0 C 15,6 C 11,7 C 91 % 1011,3 hPa 0,0 l/m 0 min 0 min 0 W/m 0,0 km/h (0 Bft) 95,74 %
26.08.2023 23:56 17,0 C 15,6 C 11,7 C 91 % 1011,2 hPa 0,0 l/m 0 min 0 min 0 W/m 0,0 km/h (0 Bft) 97,83 %
26.08.2023 23:58 17,0 C 15,6 C 11,7 C 91 % 1011,2 hPa 0,0 l/m 0 min 0 min 0 W/m 0,0 km/h (0 Bft) 97,87 %
_ Min-Zeit 06:48 05:44 05:46 16:58 00:00 - - - - 00:04 08:08
Minimum _ 13,8 C 13,3 C 10,6 C 57 % 1009,5 hPa - - - - 0,0 km/h (0 Bft) 52,38 %
_ Max-Zeit 17:42 12:24 12:16 00:20 11:26 23:42 12:08 02:52 13:48 15:46 00:38
Maximum _ 23,4 C 28,9 C 21,7 C 96 % 1012,1 hPa 0,2 l/m 4 min 2 min 968 W/m 35,4 km/h
SW (5 Bft)
100,00 %
Durchschnitt _ 18,8 C 18,8 C 14,7 C 78 % 1011,1 hPa #0,2 l/m #6:40 h #14 min. 322 W/m 11,5 km/h (2 Bft) 97,42 %
© 2023 W. Hausmann